Wetterdaten: Donnerstag, 14.05.2020
Datum Zeit Temp. Aussen Temp. o. S. Temp +5cm Feuchte Auss Luftdruck Regen Sonnenschein Regendauer Solar Windben Empfang
14.05.2020 00:00 7,1 C 5,6 C 5,6 C 72 % 1015,8 hPa 0,0 l/m 0 min 0 min 0 W/m 0,0 km/h (0 Bft) 93,62 %
14.05.2020 00:02 7,1 C 5,6 C 5,6 C 71 % 1015,8 hPa 0,0 l/m 0 min 0 min 0 W/m 0,0 km/h (0 Bft) 88,24 %
14.05.2020 00:04 7,1 C 5,6 C 5,6 C 71 % 1015,8 hPa 0,0 l/m 0 min 0 min 0 W/m 0,0 km/h (0 Bft) 93,62 %
14.05.2020 00:08 7,0 C 5,6 C 5,6 C 71 % 1015,9 hPa 0,0 l/m 0 min 0 min 0 W/m 3,2 km/h (1 Bft) 94,62 %
14.05.2020 00:10 6,9 C 5,6 C 5,6 C 71 % 1015,9 hPa 0,0 l/m 0 min 0 min 0 W/m 3,2 km/h (1 Bft) 93,62 %
14.05.2020 00:12 6,9 C 5,6 C 5,6 C 71 % 1015,9 hPa 0,0 l/m 0 min 0 min 0 W/m 3,2 km/h (1 Bft) 93,62 %
14.05.2020 00:14 6,9 C 5,6 C 5,6 C 71 % 1015,9 hPa 0,0 l/m 0 min 0 min 0 W/m 0,0 km/h (0 Bft) 93,62 %
14.05.2020 00:16 6,9 C 5,6 C 5,6 C 71 % 1016,0 hPa 0,0 l/m 0 min 0 min 0 W/m 0,0 km/h (0 Bft) 93,62 %
14.05.2020 00:18 6,8 C 5,6 C 5,6 C 71 % 1016,1 hPa 0,0 l/m 0 min 0 min 0 W/m 0,0 km/h (0 Bft) 93,62 %
14.05.2020 00:20 6,8 C 5,6 C 5,6 C 71 % 1016,1 hPa 0,0 l/m 0 min 0 min 0 W/m 0,0 km/h (0 Bft) 93,48 %
14.05.2020 00:22 6,8 C 5,6 C 5,6 C 71 % 1016,1 hPa 0,0 l/m 0 min 0 min 0 W/m 6,4 km/h (2 Bft) 95,74 %
14.05.2020 00:24 6,7 C 5,6 C 5,6 C 71 % 1016,2 hPa 0,0 l/m 0 min 0 min 0 W/m 9,7 km/h (2 Bft) 93,62 %
14.05.2020 00:26 6,7 C 5,6 C 5,6 C 71 % 1016,2 hPa 0,0 l/m 0 min 0 min 0 W/m 3,2 km/h (1 Bft) 93,62 %
14.05.2020 00:28 6,7 C 5,6 C 5,6 C 71 % 1016,2 hPa 0,0 l/m 0 min 0 min 0 W/m 6,4 km/h (2 Bft) 97,87 %
14.05.2020 00:30 6,7 C 5,6 C 5,6 C 71 % 1016,2 hPa 0,0 l/m 0 min 0 min 0 W/m 6,4 km/h (2 Bft) 97,87 %
14.05.2020 00:32 6,6 C 5,6 C 5,6 C 72 % 1016,3 hPa 0,0 l/m 0 min 0 min 0 W/m 6,4 km/h (2 Bft) 95,65 %
14.05.2020 00:34 6,6 C 5,6 C 5,6 C 72 % 1016,3 hPa 0,0 l/m 0 min 0 min 0 W/m 0,0 km/h (0 Bft) 97,87 %
14.05.2020 00:36 6,6 C 5,6 C 5,6 C 72 % 1016,3 hPa 0,0 l/m 0 min 0 min 0 W/m 3,2 km/h (1 Bft) 95,74 %
14.05.2020 00:38 6,6 C 5,6 C 5,6 C 72 % 1016,3 hPa 0,0 l/m 0 min 0 min 0 W/m 0,0 km/h (0 Bft) 97,87 %
14.05.2020 00:40 6,6 C 5,6 C 5,6 C 72 % 1016,3 hPa 0,0 l/m 0 min 0 min 0 W/m 9,7 km/h (2 Bft) 100,00 %
14.05.2020 00:42 6,6 C 5,6 C 5,6 C 72 % 1016,4 hPa 0,0 l/m 0 min 0 min 0 W/m 6,4 km/h (2 Bft) 97,87 %
14.05.2020 00:44 6,6 C 5,6 C 5,6 C 72 % 1016,4 hPa 0,0 l/m 0 min 0 min 0 W/m 6,4 km/h (2 Bft) 100,00 %
14.05.2020 00:46 6,5 C 5,6 C 5,6 C 72 % 1016,4 hPa 0,0 l/m 0 min 0 min 0 W/m 9,7 km/h (2 Bft) 100,00 %
14.05.2020 00:48 6,5 C 5,6 C 5,6 C 72 % 1016,4 hPa 0,0 l/m 0 min 0 min 0 W/m 9,7 km/h (2 Bft) 97,87 %
14.05.2020 00:50 6,5 C 5,6 C 5,6 C 72 % 1016,4 hPa 0,0 l/m 0 min 0 min 0 W/m 3,2 km/h (1 Bft) 100,00 %
14.05.2020 00:52 6,5 C 5,6 C 5,6 C 72 % 1016,5 hPa 0,0 l/m 0 min 0 min 0 W/m 3,2 km/h (1 Bft) 100,00 %
14.05.2020 00:54 6,5 C 5,6 C 5,6 C 72 % 1016,5 hPa 0,0 l/m 0 min 0 min 0 W/m 3,2 km/h (1 Bft) 97,87 %
14.05.2020 00:56 6,5 C 5,6 C 5,6 C 72 % 1016,6 hPa 0,0 l/m 0 min 0 min 0 W/m 6,4 km/h (2 Bft) 100,00 %
14.05.2020 00:58 6,5 C 5,6 C 5,6 C 72 % 1016,6 hPa 0,0 l/m 0 min 0 min 0 W/m 0,0 km/h (0 Bft) 97,87 %
14.05.2020 01:00 6,5 C 5,6 C 5,6 C 72 % 1016,6 hPa 0,0 l/m 0 min 0 min 0 W/m 3,2 km/h (1 Bft) 97,87 %
14.05.2020 01:02 6,4 C 5,6 C 5,6 C 72 % 1016,6 hPa 0,0 l/m 0 min 0 min 0 W/m 6,4 km/h (2 Bft) 100,00 %
14.05.2020 01:04 6,4 C 5,6 C 5,6 C 72 % 1016,6 hPa 0,0 l/m 0 min 0 min 0 W/m 3,2 km/h (1 Bft) 100,00 %
14.05.2020 01:06 6,4 C 5,0 C 5,6 C 73 % 1016,7 hPa 0,0 l/m 0 min 0 min 0 W/m 6,4 km/h (2 Bft) 100,00 %
14.05.2020 01:08 6,4 C 5,0 C 5,0 C 73 % 1016,7 hPa 0,0 l/m 0 min 0 min 0 W/m 3,2 km/h (1 Bft) 100,00 %
14.05.2020 01:10 6,4 C 5,0 C 5,0 C 73 % 1016,7 hPa 0,0 l/m 0 min 0 min 0 W/m 3,2 km/h (1 Bft) 100,00 %
14.05.2020 01:12 6,3 C 5,0 C 5,0 C 73 % 1016,7 hPa 0,0 l/m 0 min 0 min 0 W/m 0,0 km/h (0 Bft) 100,00 %
14.05.2020 01:14 6,3 C 5,0 C 5,0 C 73 % 1016,7 hPa 0,0 l/m 0 min 0 min 0 W/m 9,7 km/h (2 Bft) 97,87 %
14.05.2020 01:16 6,3 C 5,0 C 5,0 C 73 % 1016,8 hPa 0,0 l/m 0 min 0 min 0 W/m 6,4 km/h (2 Bft) 100,00 %
14.05.2020 01:18 6,3 C 5,0 C 5,0 C 73 % 1016,8 hPa 0,0 l/m 0 min 0 min 0 W/m 9,7 km/h (2 Bft) 100,00 %
14.05.2020 01:20 6,3 C 5,0 C 5,0 C 73 % 1016,8 hPa 0,0 l/m 0 min 0 min 0 W/m 9,7 km/h (2 Bft) 100,00 %
14.05.2020 01:22 6,2 C 5,0 C 5,0 C 73 % 1016,8 hPa 0,0 l/m 0 min 0 min 0 W/m 3,2 km/h (1 Bft) 100,00 %
14.05.2020 01:24 6,2 C 5,0 C 5,0 C 73 % 1016,9 hPa 0,0 l/m 0 min 0 min 0 W/m 0,0 km/h (0 Bft) 100,00 %
14.05.2020 01:26 6,2 C 5,0 C 5,0 C 73 % 1016,9 hPa 0,0 l/m 0 min 0 min 0 W/m 3,2 km/h (1 Bft) 100,00 %
14.05.2020 01:28 6,2 C 5,0 C 5,0 C 74 % 1016,9 hPa 0,0 l/m 0 min 0 min 0 W/m 3,2 km/h (1 Bft) 100,00 %
14.05.2020 01:30 6,1 C 5,0 C 5,0 C 74 % 1017,0 hPa 0,0 l/m 0 min 0 min 0 W/m 3,2 km/h (1 Bft) 97,83 %
14.05.2020 01:32 6,1 C 5,0 C 5,0 C 74 % 1017,0 hPa 0,0 l/m 0 min 0 min 0 W/m 0,0 km/h (0 Bft) 65,96 %
14.05.2020 01:34 6,1 C 4,4 C 5,0 C 74 % 1017,0 hPa 0,0 l/m 0 min 0 min 0 W/m 0,0 km/h (0 Bft) 88,64 %
14.05.2020 01:36 6,1 C 4,4 C 5,0 C 74 % 1017,0 hPa 0,0 l/m 0 min 0 min 0 W/m 0,0 km/h (0 Bft) 97,87 %
14.05.2020 01:38 6,1 C 4,4 C 4,4 C 74 % 1017,1 hPa 0,0 l/m 0 min 0 min 0 W/m 3,2 km/h (1 Bft) 100,00 %
14.05.2020 01:40 6,1 C 4,4 C 4,4 C 74 % 1017,1 hPa 0,0 l/m 0 min 0 min 0 W/m 3,2 km/h (1 Bft) 100,00 %
14.05.2020 01:42 6,0 C 4,4 C 4,4 C 74 % 1017,2 hPa 0,0 l/m 0 min 0 min 0 W/m 0,0 km/h (0 Bft) 97,87 %
14.05.2020 01:44 6,0 C 4,4 C 4,4 C 74 % 1017,1 hPa 0,0 l/m 0 min 0 min 0 W/m 3,2 km/h (1 Bft) 97,87 %
14.05.2020 01:46 5,9 C 4,4 C 4,4 C 74 % 1017,1 hPa 0,0 l/m 0 min 0 min 0 W/m 3,2 km/h (1 Bft) 100,00 %
14.05.2020 01:48 5,9 C 4,4 C 4,4 C 75 % 1017,1 hPa 0,0 l/m 0 min 0 min 0 W/m 6,4 km/h (2 Bft) 100,00 %
14.05.2020 01:50 5,9 C 4,4 C 4,4 C 75 % 1017,2 hPa 0,0 l/m 0 min 0 min 0 W/m 0,0 km/h (0 Bft) 97,87 %
14.05.2020 01:52 5,9 C 4,4 C 4,4 C 75 % 1017,2 hPa 0,0 l/m 0 min 0 min 0 W/m 0,0 km/h (0 Bft) 97,83 %
14.05.2020 01:54 5,9 C 4,4 C 4,4 C 75 % 1017,2 hPa 0,0 l/m 0 min 0 min 0 W/m 3,2 km/h (1 Bft) 97,87 %
14.05.2020 01:56 5,8 C 4,4 C 4,4 C 75 % 1017,2 hPa 0,0 l/m 0 min 0 min 0 W/m 3,2 km/h (1 Bft) 97,87 %
14.05.2020 01:58 5,8 C 4,4 C 4,4 C 75 % 1017,3 hPa 0,0 l/m 0 min 0 min 0 W/m 3,2 km/h (1 Bft) 97,87 %
14.05.2020 02:00 5,8 C 4,4 C 4,4 C 75 % 1017,3 hPa 0,0 l/m 0 min 0 min 0 W/m 0,0 km/h (0 Bft) 95,74 %
14.05.2020 02:02 5,8 C 4,4 C 4,4 C 75 % 1017,3 hPa 0,0 l/m 0 min 0 min 0 W/m 0,0 km/h (0 Bft) 93,62 %
14.05.2020 02:04 5,7 C 4,4 C 4,4 C 75 % 1017,3 hPa 0,0 l/m 0 min 0 min 0 W/m 3,2 km/h (1 Bft) 97,83 %
14.05.2020 02:06 5,7 C 4,4 C 4,4 C 76 % 1017,3 hPa 0,0 l/m 0 min 0 min 0 W/m 0,0 km/h (0 Bft) 97,87 %
14.05.2020 02:08 5,7 C 4,4 C 4,4 C 76 % 1017,4 hPa 0,0 l/m 0 min 0 min 0 W/m 0,0 km/h (0 Bft) 95,74 %
14.05.2020 02:10 5,7 C 4,4 C 4,4 C 76 % 1017,3 hPa 0,0 l/m 0 min 0 min 0 W/m 0,0 km/h (0 Bft) 97,87 %
14.05.2020 02:12 5,7 C 4,4 C 4,4 C 76 % 1017,4 hPa 0,0 l/m 0 min 0 min 0 W/m 0,0 km/h (0 Bft) 97,87 %
14.05.2020 02:14 5,7 C 4,4 C 4,4 C 76 % 1017,4 hPa 0,0 l/m 0 min 0 min 0 W/m 0,0 km/h (0 Bft) 97,87 %
14.05.2020 02:16 5,6 C 4,4 C 4,4 C 76 % 1017,4 hPa 0,0 l/m 0 min 0 min 0 W/m 0,0 km/h (0 Bft) 97,83 %
14.05.2020 02:18 5,6 C 4,4 C 4,4 C 76 % 1017,4 hPa 0,0 l/m 0 min 0 min 0 W/m 0,0 km/h (0 Bft) 97,87 %
14.05.2020 02:20 5,6 C 3,9 C 3,9 C 76 % 1017,4 hPa 0,0 l/m 0 min 0 min 0 W/m 0,0 km/h (0 Bft) 97,87 %
14.05.2020 02:22 5,6 C 3,9 C 3,9 C 76 % 1017,4 hPa 0,0 l/m 0 min 0 min 0 W/m 0,0 km/h (0 Bft) 97,87 %
14.05.2020 02:24 5,6 C 3,9 C 3,9 C 76 % 1017,4 hPa 0,0 l/m 0 min 0 min 0 W/m 0,0 km/h (0 Bft) 97,87 %
14.05.2020 02:26 5,6 C 3,9 C 3,9 C 76 % 1017,5 hPa 0,0 l/m 0 min 0 min 0 W/m 0,0 km/h (0 Bft) 97,87 %
14.05.2020 02:28 5,5 C 3,9 C 3,9 C 76 % 1017,5 hPa 0,0 l/m 0 min 0 min 0 W/m 0,0 km/h (0 Bft) 97,83 %
14.05.2020 02:30 5,5 C 3,9 C 3,9 C 76 % 1017,5 hPa 0,0 l/m 0 min 0 min 0 W/m 0,0 km/h (0 Bft) 100,00 %
14.05.2020 02:32 5,4 C 3,9 C 3,9 C 76 % 1017,5 hPa 0,0 l/m 0 min 0 min 0 W/m 0,0 km/h (0 Bft) 100,00 %
14.05.2020 02:34 5,4 C 3,9 C 3,9 C 76 % 1017,6 hPa 0,0 l/m 0 min 0 min 0 W/m 0,0 km/h (0 Bft) 97,87 %
14.05.2020 02:36 5,4 C 3,9 C 3,9 C 76 % 1017,5 hPa 0,0 l/m 0 min 0 min 0 W/m 0,0 km/h (0 Bft) 97,87 %
14.05.2020 02:38 5,4 C 3,9 C 3,9 C 77 % 1017,6 hPa 0,0 l/m 0 min 0 min 0 W/m 0,0 km/h (0 Bft) 97,87 %
14.05.2020 02:40 5,3 C 3,9 C 3,9 C 77 % 1017,6 hPa 0,0 l/m 0 min 0 min 0 W/m 0,0 km/h (0 Bft) 97,83 %
14.05.2020 02:42 5,3 C 3,9 C 3,9 C 77 % 1017,6 hPa 0,0 l/m 0 min 0 min 0 W/m 0,0 km/h (0 Bft) 97,87 %
14.05.2020 02:44 5,3 C 3,9 C 3,9 C 77 % 1017,7 hPa 0,0 l/m 0 min 0 min 0 W/m 0,0 km/h (0 Bft) 97,87 %
14.05.2020 02:46 5,3 C 3,9 C 3,9 C 77 % 1017,7 hPa 0,0 l/m 0 min 0 min 0 W/m 3,2 km/h (1 Bft) 97,87 %
14.05.2020 02:48 5,2 C 3,9 C 3,9 C 77 % 1017,7 hPa 0,0 l/m 0 min 0 min 0 W/m 3,2 km/h (1 Bft) 93,62 %
14.05.2020 02:50 5,2 C 3,9 C 3,9 C 77 % 1017,7 hPa 0,0 l/m 0 min 0 min 0 W/m 3,2 km/h (1 Bft) 97,87 %
14.05.2020 02:52 5,2 C 3,9 C 3,9 C 77 % 1017,7 hPa 0,0 l/m 0 min 0 min 0 W/m 6,4 km/h (2 Bft) 97,83 %
14.05.2020 02:54 5,1 C 3,9 C 3,9 C 78 % 1017,8 hPa 0,0 l/m 0 min 0 min 0 W/m 3,2 km/h (1 Bft) 97,87 %
14.05.2020 02:56 5,1 C 3,9 C 3,9 C 77 % 1017,8 hPa 0,0 l/m 0 min 0 min 0 W/m 0,0 km/h (0 Bft) 97,87 %
14.05.2020 02:58 5,1 C 3,9 C 3,9 C 78 % 1017,8 hPa 0,0 l/m 0 min 0 min 0 W/m 3,2 km/h (1 Bft) 97,87 %
14.05.2020 03:00 5,1 C 3,9 C 3,9 C 78 % 1017,8 hPa 0,0 l/m 0 min 0 min 0 W/m 0,0 km/h (0 Bft) 97,87 %
14.05.2020 03:02 5,1 C 3,9 C 3,9 C 78 % 1017,8 hPa 0,0 l/m 0 min 0 min 0 W/m 0,0 km/h (0 Bft) 97,83 %
14.05.2020 03:04 5,0 C 3,3 C 3,9 C 78 % 1017,8 hPa 0,0 l/m 0 min 0 min 0 W/m 3,2 km/h (1 Bft) 97,87 %
14.05.2020 03:06 5,0 C 3,3 C 3,9 C 78 % 1017,8 hPa 0,0 l/m 0 min 0 min 0 W/m 0,0 km/h (0 Bft) 95,74 %
14.05.2020 03:08 4,9 C 3,3 C 3,3 C 78 % 1017,8 hPa 0,0 l/m 0 min 0 min 0 W/m 0,0 km/h (0 Bft) 97,87 %
14.05.2020 03:10 4,9 C 3,3 C 3,3 C 78 % 1017,8 hPa 0,0 l/m 0 min 0 min 0 W/m 0,0 km/h (0 Bft) 97,87 %
14.05.2020 03:12 4,9 C 3,3 C 3,3 C 78 % 1017,8 hPa 0,0 l/m 0 min 0 min 0 W/m 6,4 km/h (2 Bft) 97,87 %
14.05.2020 03:14 4,9 C 3,3 C 3,3 C 78 % 1017,8 hPa 0,0 l/m 0 min 0 min 0 W/m 3,2 km/h (1 Bft) 97,83 %
14.05.2020 03:16 4,8 C 3,3 C 3,3 C 79 % 1017,8 hPa 0,0 l/m 0 min 0 min 0 W/m 9,7 km/h (2 Bft) 97,87 %
14.05.2020 03:18 4,8 C 3,3 C 3,3 C 79 % 1017,8 hPa 0,0 l/m 0 min 0 min 0 W/m 0,0 km/h (0 Bft) 97,87 %
14.05.2020 03:20 4,8 C 3,3 C 3,3 C 79 % 1017,8 hPa 0,0 l/m 0 min 0 min 0 W/m 3,2 km/h (1 Bft) 97,87 %
14.05.2020 03:22 4,8 C 3,3 C 3,3 C 79 % 1017,8 hPa 0,0 l/m 0 min 0 min 0 W/m 6,4 km/h (2 Bft) 97,87 %
14.05.2020 03:24 4,7 C 3,3 C 3,3 C 79 % 1017,9 hPa 0,0 l/m 0 min 0 min 0 W/m 3,2 km/h (1 Bft) 95,74 %
14.05.2020 03:26 4,7 C 3,3 C 3,3 C 79 % 1017,9 hPa 0,0 l/m 0 min 0 min 0 W/m 0,0 km/h (0 Bft) 97,83 %
14.05.2020 03:28 4,7 C 3,3 C 3,3 C 79 % 1017,8 hPa 0,0 l/m 0 min 0 min 0 W/m 3,2 km/h (1 Bft) 97,87 %
14.05.2020 03:30 4,7 C 3,3 C 3,3 C 79 % 1017,8 hPa 0,0 l/m 0 min 0 min 0 W/m 3,2 km/h (1 Bft) 100,00 %
14.05.2020 03:32 4,6 C 3,3 C 3,3 C 80 % 1017,9 hPa 0,0 l/m 0 min 0 min 0 W/m 3,2 km/h (1 Bft) 97,87 %
14.05.2020 03:34 4,6 C 2,8 C 3,3 C 80 % 1017,8 hPa 0,0 l/m 0 min 0 min 0 W/m 0,0 km/h (0 Bft) 56,52 %
14.05.2020 03:36 4,6 C 2,8 C 3,3 C 80 % 1017,8 hPa 0,0 l/m 0 min 0 min 0 W/m 0,0 km/h (0 Bft) 100,00 %
14.05.2020 03:38 4,6 C 2,8 C 3,3 C 80 % 1017,8 hPa 0,0 l/m 0 min 0 min 0 W/m 0,0 km/h (0 Bft) 100,00 %
14.05.2020 03:40 4,5 C 2,8 C 2,8 C 80 % 1017,8 hPa 0,0 l/m 0 min 0 min 0 W/m 3,2 km/h (1 Bft) 100,00 %
14.05.2020 03:42 4,4 C 2,8 C 2,8 C 80 % 1017,9 hPa 0,0 l/m 0 min 0 min 0 W/m 0,0 km/h (0 Bft) 95,74 %
14.05.2020 03:44 4,4 C 2,8 C 2,8 C 80 % 1017,9 hPa 0,0 l/m 0 min 0 min 0 W/m 0,0 km/h (0 Bft) 100,00 %
14.05.2020 03:46 4,4 C 2,8 C 2,8 C 80 % 1017,8 hPa 0,0 l/m 0 min 0 min 0 W/m 0,0 km/h (0 Bft) 100,00 %
14.05.2020 03:48 4,4 C 2,8 C 2,8 C 80 % 1017,9 hPa 0,0 l/m 0 min 0 min 0 W/m 0,0 km/h (0 Bft) 100,00 %
14.05.2020 03:50 4,3 C 2,8 C 2,8 C 80 % 1017,9 hPa 0,0 l/m 0 min 0 min 0 W/m 0,0 km/h (0 Bft) 95,74 %
14.05.2020 03:52 4,3 C 2,8 C 2,8 C 80 % 1017,9 hPa 0,0 l/m 0 min 0 min 0 W/m 0,0 km/h (0 Bft) 100,00 %
14.05.2020 03:54 4,3 C 2,8 C 2,8 C 80 % 1017,9 hPa 0,0 l/m 0 min 0 min 0 W/m 0,0 km/h (0 Bft) 100,00 %
14.05.2020 03:56 4,3 C 2,8 C 2,2 C 80 % 1017,9 hPa 0,0 l/m 0 min 0 min 0 W/m 0,0 km/h (0 Bft) 97,87 %
14.05.2020 03:58 4,2 C 2,8 C 2,2 C 80 % 1017,9 hPa 0,0 l/m 0 min 0 min 0 W/m 0,0 km/h (0 Bft) 95,74 %
14.05.2020 04:00 4,2 C 2,2 C 2,2 C 80 % 1017,9 hPa 0,0 l/m 0 min 0 min 0 W/m 0,0 km/h (0 Bft) 97,83 %
14.05.2020 04:02 4,2 C 2,2 C 2,2 C 80 % 1017,9 hPa 0,0 l/m 0 min 0 min 0 W/m 0,0 km/h (0 Bft) 92,86 %
14.05.2020 04:04 4,2 C 2,8 C 2,2 C 80 % 1017,9 hPa 0,0 l/m 0 min 0 min 0 W/m 0,0 km/h (0 Bft) 97,87 %
14.05.2020 04:06 4,1 C 2,2 C 2,2 C 80 % 1017,9 hPa 0,0 l/m 0 min 0 min 0 W/m 0,0 km/h (0 Bft) 97,87 %
14.05.2020 04:08 4,1 C 2,2 C 2,2 C 80 % 1018,0 hPa 0,0 l/m 0 min 0 min 0 W/m 0,0 km/h (0 Bft) 97,87 %
14.05.2020 04:10 4,1 C 2,2 C 2,2 C 80 % 1018,0 hPa 0,0 l/m 0 min 0 min 0 W/m 0,0 km/h (0 Bft) 97,87 %
14.05.2020 04:12 4,1 C 2,2 C 2,2 C 81 % 1018,0 hPa 0,0 l/m 0 min 0 min 0 W/m 3,2 km/h (1 Bft) 97,83 %
14.05.2020 04:14 4,0 C 2,2 C 2,2 C 80 % 1018,0 hPa 0,0 l/m 0 min 0 min 0 W/m 0,0 km/h (0 Bft) 95,74 %
14.05.2020 04:16 4,0 C 2,2 C 2,2 C 81 % 1018,0 hPa 0,0 l/m 0 min 0 min 0 W/m 0,0 km/h (0 Bft) 93,62 %
14.05.2020 04:18 3,9 C 2,2 C 2,2 C 81 % 1018,0 hPa 0,0 l/m 0 min 0 min 0 W/m 0,0 km/h (0 Bft) 95,74 %
14.05.2020 04:20 3,9 C 2,2 C 2,2 C 81 % 1018,0 hPa 0,0 l/m 0 min 0 min 0 W/m 0,0 km/h (0 Bft) 95,74 %
14.05.2020 04:22 3,9 C 2,2 C 2,2 C 81 % 1018,1 hPa 0,0 l/m 0 min 0 min 0 W/m 0,0 km/h (0 Bft) 95,74 %
14.05.2020 04:24 3,8 C 2,2 C 2,2 C 81 % 1018,0 hPa 0,0 l/m 0 min 0 min 0 W/m 0,0 km/h (0 Bft) 95,65 %
14.05.2020 04:26 3,8 C 2,2 C 2,2 C 81 % 1018,1 hPa 0,0 l/m 0 min 0 min 0 W/m 0,0 km/h (0 Bft) 97,87 %
14.05.2020 04:28 3,8 C 2,2 C 2,2 C 81 % 1018,1 hPa 0,0 l/m 0 min 0 min 0 W/m 0,0 km/h (0 Bft) 97,87 %
14.05.2020 04:30 3,8 C 2,2 C 2,2 C 81 % 1018,1 hPa 0,0 l/m 0 min 0 min 0 W/m 0,0 km/h (0 Bft) 97,87 %
14.05.2020 04:32 3,7 C 2,2 C 2,2 C 81 % 1018,1 hPa 0,0 l/m 0 min 0 min 0 W/m 0,0 km/h (0 Bft) 95,74 %
14.05.2020 04:34 3,7 C 2,2 C 2,2 C 81 % 1018,2 hPa 0,0 l/m 0 min 0 min 0 W/m 0,0 km/h (0 Bft) 97,87 %
14.05.2020 04:36 3,7 C 2,2 C 2,2 C 81 % 1018,2 hPa 0,0 l/m 0 min 0 min 0 W/m 0,0 km/h (0 Bft) 97,83 %
14.05.2020 04:38 3,7 C 2,2 C 2,2 C 81 % 1018,3 hPa 0,0 l/m 0 min 0 min 0 W/m 0,0 km/h (0 Bft) 95,74 %
14.05.2020 04:40 3,6 C 2,2 C 2,2 C 81 % 1018,3 hPa 0,0 l/m 0 min 0 min 0 W/m 3,2 km/h (1 Bft) 97,87 %
14.05.2020 04:42 3,6 C 2,2 C 2,2 C 82 % 1018,3 hPa 0,0 l/m 0 min 0 min 0 W/m 0,0 km/h (0 Bft) 97,87 %
14.05.2020 04:44 3,6 C 2,2 C 2,2 C 82 % 1018,3 hPa 0,0 l/m 0 min 0 min 0 W/m 0,0 km/h (0 Bft) 97,87 %
14.05.2020 04:46 3,6 C 2,2 C 2,2 C 82 % 1018,3 hPa 0,0 l/m 0 min 0 min 0 W/m 0,0 km/h (0 Bft) 97,87 %
14.05.2020 04:48 3,6 C 2,2 C 2,2 C 82 % 1018,4 hPa 0,0 l/m 0 min 0 min 0 W/m 0,0 km/h (0 Bft) 97,83 %
14.05.2020 04:50 3,5 C 2,2 C 1,7 C 82 % 1018,4 hPa 0,0 l/m 0 min 0 min 0 W/m 0,0 km/h (0 Bft) 97,87 %
14.05.2020 04:52 3,5 C 2,2 C 1,7 C 82 % 1018,4 hPa 0,0 l/m 0 min 0 min 0 W/m 0,0 km/h (0 Bft) 95,74 %
14.05.2020 04:54 3,4 C 1,7 C 1,7 C 82 % 1018,4 hPa 0,0 l/m 0 min 0 min 0 W/m 0,0 km/h (0 Bft) 97,87 %
14.05.2020 04:56 3,4 C 1,7 C 1,7 C 82 % 1018,4 hPa 0,0 l/m 0 min 0 min 0 W/m 0,0 km/h (0 Bft) 97,87 %
14.05.2020 04:58 3,4 C 1,7 C 1,7 C 82 % 1018,4 hPa 0,0 l/m 0 min 0 min 0 W/m 0,0 km/h (0 Bft) 97,83 %
14.05.2020 05:00 3,4 C 1,7 C 1,7 C 82 % 1018,5 hPa 0,0 l/m 0 min 0 min 0 W/m 0,0 km/h (0 Bft) 97,87 %
14.05.2020 05:02 3,4 C 1,7 C 1,7 C 82 % 1018,5 hPa 0,0 l/m 0 min 0 min 0 W/m 0,0 km/h (0 Bft) 95,74 %
14.05.2020 05:04 3,3 C 1,7 C 1,7 C 82 % 1018,6 hPa 0,0 l/m 0 min 0 min 0 W/m 0,0 km/h (0 Bft) 97,87 %
14.05.2020 05:06 3,3 C 1,7 C 1,7 C 82 % 1018,5 hPa 0,0 l/m 0 min 0 min 0 W/m 0,0 km/h (0 Bft) 95,74 %
14.05.2020 05:08 3,3 C 1,7 C 1,7 C 82 % 1018,6 hPa 0,0 l/m 0 min 0 min 0 W/m 0,0 km/h (0 Bft) 97,87 %
14.05.2020 05:10 3,3 C 1,7 C 1,7 C 82 % 1018,6 hPa 0,0 l/m 0 min 0 min 0 W/m 0,0 km/h (0 Bft) 97,83 %
14.05.2020 05:12 3,3 C 1,7 C 1,7 C 82 % 1018,6 hPa 0,0 l/m 0 min 0 min 0 W/m 0,0 km/h (0 Bft) 97,87 %
14.05.2020 05:14 3,2 C 1,1 C 1,1 C 82 % 1018,6 hPa 0,0 l/m 0 min 0 min 0 W/m 0,0 km/h (0 Bft) 97,87 %
14.05.2020 05:16 3,2 C 1,1 C 1,1 C 82 % 1018,6 hPa 0,0 l/m 0 min 0 min 0 W/m 0,0 km/h (0 Bft) 97,87 %
14.05.2020 05:18 3,2 C 1,1 C 1,1 C 82 % 1018,6 hPa 0,0 l/m 0 min 0 min 0 W/m 0,0 km/h (0 Bft) 51,16 %
14.05.2020 05:20 3,2 C 1,1 C 1,1 C 83 % 1018,6 hPa 0,0 l/m 0 min 0 min 0 W/m 0,0 km/h (0 Bft) 95,74 %
14.05.2020 05:22 3,1 C 1,1 C 1,1 C 83 % 1018,6 hPa 0,0 l/m 0 min 0 min 0 W/m 0,0 km/h (0 Bft) 97,83 %
14.05.2020 05:24 3,1 C 1,1 C 1,1 C 83 % 1018,6 hPa 0,0 l/m 0 min 0 min 0 W/m 0,0 km/h (0 Bft) 97,87 %
14.05.2020 05:26 3,1 C 1,1 C 1,1 C 83 % 1018,7 hPa 0,0 l/m 0 min 0 min 0 W/m 0,0 km/h (0 Bft) 97,87 %
14.05.2020 05:28 3,0 C 1,1 C 1,1 C 83 % 1018,6 hPa 0,0 l/m 0 min 0 min 0 W/m 0,0 km/h (0 Bft) 95,74 %
14.05.2020 05:30 3,0 C 1,1 C 1,1 C 83 % 1018,7 hPa 0,0 l/m 0 min 0 min 0 W/m 0,0 km/h (0 Bft) 97,87 %
14.05.2020 05:32 2,9 C 1,1 C 1,1 C 83 % 1018,7 hPa 0,0 l/m 0 min 0 min 0 W/m 0,0 km/h (0 Bft) 95,74 %
14.05.2020 05:34 2,9 C 1,1 C 1,1 C 83 % 1018,8 hPa 0,0 l/m 0 min 0 min 0 W/m 0,0 km/h (0 Bft) 97,83 %
14.05.2020 05:36 2,9 C 1,1 C 1,1 C 83 % 1018,8 hPa 0,0 l/m 0 min 0 min 0 W/m 0,0 km/h (0 Bft) 95,74 %
14.05.2020 05:38 2,8 C 1,1 C 1,1 C 83 % 1018,9 hPa 0,0 l/m 0 min 0 min 0 W/m 0,0 km/h (0 Bft) 95,74 %
14.05.2020 05:40 2,8 C 1,1 C 1,1 C 83 % 1018,9 hPa 0,0 l/m 0 min 0 min 0 W/m 0,0 km/h (0 Bft) 95,74 %
14.05.2020 05:42 2,8 C 1,1 C 1,1 C 83 % 1018,9 hPa 0,0 l/m 0 min 0 min 0 W/m 0,0 km/h (0 Bft) 93,62 %
14.05.2020 05:44 2,8 C 1,1 C 1,1 C 83 % 1018,9 hPa 0,0 l/m 0 min 0 min 0 W/m 0,0 km/h (0 Bft) 93,62 %
14.05.2020 05:46 2,7 C 1,1 C 1,1 C 83 % 1018,9 hPa 0,0 l/m 0 min 0 min 0 W/m 0,0 km/h (0 Bft) 91,30 %
14.05.2020 05:48 2,7 C 1,1 C 1,1 C 84 % 1018,9 hPa 0,0 l/m 0 min 0 min 2 W/m 0,0 km/h (0 Bft) 95,74 %
14.05.2020 05:50 2,7 C 1,1 C 1,1 C 84 % 1018,9 hPa 0,0 l/m 0 min 0 min 5 W/m 0,0 km/h (0 Bft) 95,74 %
14.05.2020 05:52 2,7 C 1,1 C 1,1 C 84 % 1018,9 hPa 0,0 l/m 0 min 0 min 5 W/m 0,0 km/h (0 Bft) 95,74 %
14.05.2020 05:54 2,6 C 1,1 C 1,1 C 84 % 1018,9 hPa 0,0 l/m 0 min 0 min 5 W/m 0,0 km/h (0 Bft) 93,62 %
14.05.2020 05:56 2,6 C 1,1 C 1,1 C 84 % 1018,9 hPa 0,0 l/m 0 min 0 min 7 W/m 0,0 km/h (0 Bft) 97,83 %
14.05.2020 05:58 2,6 C 1,1 C 0,6 C 84 % 1018,9 hPa 0,0 l/m 0 min 0 min 7 W/m 0,0 km/h (0 Bft) 93,62 %
14.05.2020 06:00 2,6 C 1,1 C 1,1 C 84 % 1019,0 hPa 0,0 l/m 0 min 0 min 7 W/m 0,0 km/h (0 Bft) 95,74 %
14.05.2020 06:02 2,6 C 1,1 C 1,1 C 84 % 1019,0 hPa 0,0 l/m 0 min 0 min 9 W/m 0,0 km/h (0 Bft) 95,74 %
14.05.2020 06:04 2,5 C 1,1 C 1,1 C 84 % 1019,0 hPa 0,0 l/m 0 min 0 min 9 W/m 0,0 km/h (0 Bft) 95,74 %
14.05.2020 06:08 2,4 C 1,1 C 1,1 C 84 % 1019,1 hPa 0,0 l/m 0 min 0 min 10 W/m 0,0 km/h (0 Bft) 94,62 %
14.05.2020 06:10 2,4 C 1,1 C 1,1 C 85 % 1019,2 hPa 0,0 l/m 0 min 0 min 11 W/m 0,0 km/h (0 Bft) 95,74 %
14.05.2020 06:12 2,4 C 1,1 C 1,1 C 84 % 1019,2 hPa 0,0 l/m 0 min 0 min 11 W/m 0,0 km/h (0 Bft) 95,74 %
14.05.2020 06:14 2,4 C 1,1 C 1,1 C 85 % 1019,2 hPa 0,0 l/m 0 min 0 min 12 W/m 3,2 km/h (1 Bft) 95,74 %
14.05.2020 06:16 2,4 C 1,1 C 1,1 C 85 % 1019,2 hPa 0,0 l/m 0 min 0 min 12 W/m 0,0 km/h (0 Bft) 95,74 %
14.05.2020 06:18 2,3 C 1,1 C 1,1 C 85 % 1019,2 hPa 0,0 l/m 0 min 0 min 12 W/m 0,0 km/h (0 Bft) 95,74 %
14.05.2020 06:20 2,3 C 1,7 C 1,1 C 85 % 1019,3 hPa 0,0 l/m 0 min 0 min 13 W/m 0,0 km/h (0 Bft) 97,83 %
14.05.2020 06:22 2,3 C 1,7 C 1,1 C 85 % 1019,3 hPa 0,0 l/m 0 min 0 min 14 W/m 0,0 km/h (0 Bft) 97,87 %
14.05.2020 06:24 2,3 C 1,7 C 1,1 C 85 % 1019,3 hPa 0,0 l/m 0 min 0 min 14 W/m 0,0 km/h (0 Bft) 97,87 %
14.05.2020 06:26 2,3 C 1,7 C 1,7 C 86 % 1019,3 hPa 0,0 l/m 0 min 0 min 14 W/m 0,0 km/h (0 Bft) 95,74 %
14.05.2020 06:28 2,3 C 1,7 C 1,7 C 86 % 1019,4 hPa 0,0 l/m 0 min 0 min 16 W/m 0,0 km/h (0 Bft) 97,87 %
14.05.2020 06:30 2,3 C 1,7 C 1,7 C 86 % 1019,4 hPa 0,0 l/m 0 min 0 min 16 W/m 0,0 km/h (0 Bft) 97,87 %
14.05.2020 06:32 2,3 C 1,7 C 1,7 C 86 % 1019,4 hPa 0,0 l/m 0 min 0 min 16 W/m 0,0 km/h (0 Bft) 97,83 %
14.05.2020 06:34 2,3 C 1,7 C 1,7 C 86 % 1019,5 hPa 0,0 l/m 0 min 0 min 18 W/m 0,0 km/h (0 Bft) 95,74 %
14.05.2020 06:36 2,3 C 1,7 C 1,7 C 86 % 1019,5 hPa 0,0 l/m 0 min 0 min 18 W/m 0,0 km/h (0 Bft) 97,87 %
14.05.2020 06:38 2,3 C 1,7 C 1,7 C 86 % 1019,5 hPa 0,0 l/m 0 min 0 min 19 W/m 0,0 km/h (0 Bft) 95,74 %
14.05.2020 06:40 2,3 C 1,7 C 1,7 C 86 % 1019,5 hPa 0,0 l/m 0 min 0 min 19 W/m 0,0 km/h (0 Bft) 97,87 %
14.05.2020 06:42 2,3 C 1,7 C 1,7 C 87 % 1019,5 hPa 0,0 l/m 0 min 0 min 19 W/m 3,2 km/h (1 Bft) 98,15 %
14.05.2020 06:44 2,3 C 1,7 C 1,7 C 87 % 1019,5 hPa 0,0 l/m 0 min 0 min 19 W/m 0,0 km/h (0 Bft) 95,65 %
14.05.2020 06:46 2,3 C 2,2 C 1,7 C 87 % 1019,5 hPa 0,0 l/m 0 min 0 min 21 W/m 0,0 km/h (0 Bft) 95,74 %
14.05.2020 06:48 2,3 C 2,2 C 1,7 C 87 % 1019,5 hPa 0,0 l/m 0 min 0 min 21 W/m 0,0 km/h (0 Bft) 97,87 %
14.05.2020 06:50 2,3 C 2,2 C 2,2 C 87 % 1019,5 hPa 0,0 l/m 0 min 0 min 21 W/m 0,0 km/h (0 Bft) 95,74 %
14.05.2020 06:52 2,3 C 2,2 C 2,2 C 87 % 1019,5 hPa 0,0 l/m 0 min 0 min 22 W/m 0,0 km/h (0 Bft) 97,87 %
14.05.2020 06:54 2,3 C 2,2 C 2,2 C 87 % 1019,6 hPa 0,0 l/m 0 min 0 min 25 W/m 0,0 km/h (0 Bft) 97,87 %
14.05.2020 06:56 2,3 C 2,2 C 2,2 C 87 % 1019,6 hPa 0,0 l/m 0 min 0 min 25 W/m 3,2 km/h (1 Bft) 97,83 %
14.05.2020 06:58 2,4 C 2,2 C 2,2 C 87 % 1019,6 hPa 0,0 l/m 0 min 0 min 26 W/m 3,2 km/h (1 Bft) 97,87 %
14.05.2020 07:00 2,4 C 2,8 C 2,2 C 88 % 1019,6 hPa 0,0 l/m 0 min 0 min 26 W/m 0,0 km/h (0 Bft) 97,87 %
14.05.2020 07:02 2,4 C 2,8 C 2,2 C 88 % 1019,5 hPa 0,0 l/m 0 min 0 min 26 W/m 0,0 km/h (0 Bft) 100,00 %
14.05.2020 07:04 2,4 C 2,8 C 2,2 C 88 % 1019,6 hPa 0,0 l/m 0 min 0 min 27 W/m 3,2 km/h (1 Bft) 100,00 %
14.05.2020 07:06 2,5 C 2,8 C 2,2 C 88 % 1019,6 hPa 0,0 l/m 0 min 0 min 28 W/m 3,2 km/h (1 Bft) 97,87 %
14.05.2020 07:08 2,6 C 2,8 C 2,8 C 88 % 1019,6 hPa 0,0 l/m 0 min 0 min 28 W/m 0,0 km/h (0 Bft) 97,83 %
14.05.2020 07:10 2,6 C 2,8 C 2,8 C 88 % 1019,6 hPa 0,0 l/m 0 min 0 min 29 W/m 3,2 km/h (1 Bft) 100,00 %
14.05.2020 07:12 2,6 C 3,3 C 2,8 C 89 % 1019,7 hPa 0,0 l/m 0 min 0 min 30 W/m 6,4 km/h (2 Bft) 100,00 %
14.05.2020 07:14 2,7 C 3,3 C 2,8 C 89 % 1019,7 hPa 0,0 l/m 0 min 0 min 30 W/m 0,0 km/h (0 Bft) 100,00 %
14.05.2020 07:16 2,7 C 3,3 C 2,8 C 89 % 1019,7 hPa 0,0 l/m 0 min 0 min 32 W/m 0,0 km/h (0 Bft) 97,87 %
14.05.2020 07:18 2,8 C 3,3 C 2,8 C 89 % 1019,7 hPa 0,0 l/m 0 min 0 min 32 W/m 0,0 km/h (0 Bft) 97,87 %
14.05.2020 07:20 2,8 C 3,3 C 3,3 C 89 % 1019,7 hPa 0,0 l/m 0 min 0 min 33 W/m 9,7 km/h (2 Bft) 100,00 %
14.05.2020 07:22 2,9 C 3,3 C 3,3 C 89 % 1019,8 hPa 0,0 l/m 0 min 0 min 33 W/m 0,0 km/h (0 Bft) 100,00 %
14.05.2020 07:24 2,9 C 3,3 C 3,3 C 89 % 1019,8 hPa 0,0 l/m 0 min 0 min 33 W/m 0,0 km/h (0 Bft) 100,00 %
14.05.2020 07:26 3,0 C 3,9 C 3,3 C 89 % 1019,8 hPa 0,0 l/m 0 min 0 min 35 W/m 0,0 km/h (0 Bft) 100,00 %
14.05.2020 07:28 3,1 C 3,9 C 3,3 C 89 % 1019,7 hPa 0,0 l/m 0 min 0 min 35 W/m 3,2 km/h (1 Bft) 97,87 %
14.05.2020 07:30 3,1 C 3,9 C 3,3 C 89 % 1019,8 hPa 0,0 l/m 0 min 0 min 36 W/m 3,2 km/h (1 Bft) 97,87 %
14.05.2020 07:32 3,2 C 3,9 C 3,3 C 89 % 1019,8 hPa 0,0 l/m 0 min 0 min 37 W/m 9,7 km/h (2 Bft) 95,65 %
14.05.2020 07:34 3,2 C 3,9 C 3,3 C 90 % 1019,8 hPa 0,0 l/m 0 min 0 min 37 W/m 0,0 km/h (0 Bft) 100,00 %
14.05.2020 07:36 3,3 C 3,9 C 3,3 C 89 % 1019,8 hPa 0,0 l/m 0 min 0 min 39 W/m 3,2 km/h (1 Bft) 100,00 %
14.05.2020 07:38 3,3 C 3,9 C 3,3 C 89 % 1019,9 hPa 0,0 l/m 0 min 0 min 39 W/m 3,2 km/h (1 Bft) 95,74 %
14.05.2020 07:40 3,4 C 3,9 C 3,9 C 89 % 1019,9 hPa 0,0 l/m 0 min 0 min 39 W/m 3,2 km/h (1 Bft) 97,87 %
14.05.2020 07:42 3,4 C 4,4 C 3,9 C 90 % 1019,9 hPa 0,0 l/m 0 min 0 min 40 W/m 0,0 km/h (0 Bft) 97,87 %
14.05.2020 07:44 3,5 C 4,4 C 3,9 C 90 % 1019,9 hPa 0,0 l/m 0 min 0 min 40 W/m 3,2 km/h (1 Bft) 47,62 %
14.05.2020 07:46 3,6 C 4,4 C 3,9 C 89 % 1019,9 hPa 0,0 l/m 0 min 0 min 42 W/m 0,0 km/h (0 Bft) 97,87 %
14.05.2020 07:48 3,6 C 4,4 C 3,9 C 89 % 1020,0 hPa 0,0 l/m 0 min 0 min 42 W/m 0,0 km/h (0 Bft) 97,87 %
14.05.2020 07:50 3,7 C 4,4 C 3,9 C 89 % 1019,9 hPa 0,0 l/m 0 min 0 min 43 W/m 3,2 km/h (1 Bft) 93,62 %
14.05.2020 07:52 3,7 C 4,4 C 3,9 C 89 % 1020,0 hPa 0,0 l/m 0 min 0 min 44 W/m 12,9 km/h (3 Bft) 100,00 %
14.05.2020 07:54 3,8 C 4,4 C 3,9 C 89 % 1020,0 hPa 0,0 l/m 0 min 0 min 44 W/m 12,9 km/h (3 Bft) 100,00 %
14.05.2020 07:56 3,8 C 4,4 C 3,9 C 89 % 1020,0 hPa 0,0 l/m 0 min 0 min 45 W/m 3,2 km/h (1 Bft) 97,87 %
14.05.2020 07:58 3,9 C 5,0 C 3,9 C 89 % 1020,0 hPa 0,0 l/m 0 min 0 min 46 W/m 6,4 km/h (2 Bft) 100,00 %
14.05.2020 08:00 4,0 C 5,0 C 4,4 C 89 % 1019,9 hPa 0,0 l/m 0 min 0 min 46 W/m 3,2 km/h (1 Bft) 100,00 %
14.05.2020 08:02 4,1 C 5,0 C 4,4 C 89 % 1019,9 hPa 0,0 l/m 0 min 0 min 46 W/m 0,0 km/h (0 Bft) 100,00 %
14.05.2020 08:04 4,1 C 5,0 C 4,4 C 89 % 1020,0 hPa 0,0 l/m 0 min 0 min 47 W/m 3,2 km/h (1 Bft) 97,87 %
14.05.2020 08:06 4,2 C 5,0 C 4,4 C 89 % 1019,9 hPa 0,0 l/m 0 min 0 min 47 W/m 0,0 km/h (0 Bft) 100,00 %
14.05.2020 08:08 4,2 C 5,0 C 4,4 C 89 % 1019,9 hPa 0,0 l/m 0 min 0 min 48 W/m 3,2 km/h (1 Bft) 97,92 %
14.05.2020 08:10 4,3 C 5,6 C 4,4 C 89 % 1019,9 hPa 0,0 l/m 0 min 0 min 49 W/m 3,2 km/h (1 Bft) 95,74 %
14.05.2020 08:12 4,4 C 5,6 C 4,4 C 89 % 1019,9 hPa 0,0 l/m 0 min 0 min 50 W/m 3,2 km/h (1 Bft) 95,74 %
14.05.2020 08:14 4,4 C 7,2 C 4,4 C 89 % 1019,9 hPa 0,0 l/m 0 min 0 min 51 W/m 6,4 km/h (2 Bft) 100,00 %
14.05.2020 08:16 4,5 C 8,9 C 5,0 C 88 % 1020,0 hPa 0,0 l/m 0 min 0 min 53 W/m 6,4 km/h (2 Bft) 100,00 %
14.05.2020 08:18 4,6 C 10,6 C 5,0 C 88 % 1020,0 hPa 0,0 l/m 0 min 0 min 53 W/m 3,2 km/h (1 Bft) 100,00 %
14.05.2020 08:20 4,7 C 11,1 C 5,0 C 88 % 1020,0 hPa 0,0 l/m 0 min 0 min 54 W/m 3,2 km/h (1 Bft) 100,00 %
14.05.2020 08:22 4,8 C 11,7 C 5,0 C 88 % 1019,9 hPa 0,0 l/m 0 min 0 min 54 W/m 3,2 km/h (1 Bft) 100,00 %
14.05.2020 08:24 5,1 C 11,7 C 5,0 C 88 % 1020,0 hPa 0,0 l/m 0 min 0 min 55 W/m 16,1 km/h (3 Bft) 100,00 %
14.05.2020 08:26 5,2 C 12,2 C 5,6 C 88 % 1020,0 hPa 0,0 l/m 0 min 0 min 56 W/m 9,7 km/h (2 Bft) 100,00 %
14.05.2020 08:28 5,4 C 12,2 C 5,6 C 88 % 1020,0 hPa 0,0 l/m 0 min 0 min 59 W/m 3,2 km/h (1 Bft) 100,00 %
14.05.2020 08:30 5,6 C 13,3 C 5,6 C 87 % 1020,0 hPa 0,0 l/m 0 min 0 min 65 W/m 3,2 km/h (1 Bft) 100,00 %
14.05.2020 08:32 5,8 C 12,8 C 6,1 C 87 % 1020,0 hPa 0,0 l/m 0 min 0 min 75 W/m 9,7 km/h (2 Bft) 100,00 %
14.05.2020 08:34 6,1 C 12,8 C 6,1 C 86 % 1020,0 hPa 0,0 l/m 0 min 0 min 90 W/m 9,7 km/h (2 Bft) 100,00 %
14.05.2020 08:36 6,4 C 13,3 C 6,7 C 85 % 1020,0 hPa 0,0 l/m 0 min 0 min 108 W/m 6,4 km/h (2 Bft) 97,87 %
14.05.2020 08:38 6,6 C 12,8 C 7,2 C 84 % 1020,1 hPa 0,0 l/m 0 min 0 min 132 W/m 9,7 km/h (2 Bft) 97,87 %
14.05.2020 08:40 6,8 C 12,8 C 7,8 C 83 % 1020,1 hPa 0,0 l/m 0 min 0 min 158 W/m 9,7 km/h (2 Bft) 95,65 %
14.05.2020 08:42 7,1 C 12,8 C 10,0 C 82 % 1020,1 hPa 0,0 l/m 0 min 0 min 197 W/m 9,7 km/h (2 Bft) 95,74 %
14.05.2020 08:44 7,3 C 12,8 C 12,8 C 81 % 1020,1 hPa 0,0 l/m 2 min 0 min 234 W/m 9,7 km/h (2 Bft) 93,62 %
14.05.2020 08:46 7,5 C 12,8 C 14,4 C 80 % 1020,2 hPa 0,0 l/m 2 min 0 min 276 W/m 6,4 km/h (2 Bft) 95,74 %
14.05.2020 08:48 7,7 C 13,3 C 16,1 C 79 % 1020,2 hPa 0,0 l/m 2 min 0 min 308 W/m 9,7 km/h (2 Bft) 93,62 %
14.05.2020 08:50 7,9 C 13,3 C 17,2 C 78 % 1020,2 hPa 0,0 l/m 2 min 0 min 349 W/m 29,0 km/h (5 Bft) 93,62 %
14.05.2020 08:52 8,2 C 13,3 C 17,2 C 77 % 1020,3 hPa 0,0 l/m 2 min 0 min 383 W/m 9,7 km/h (2 Bft) 95,65 %
14.05.2020 08:54 8,3 C 13,3 C 17,8 C 76 % 1020,3 hPa 0,0 l/m 2 min 0 min 405 W/m 19,3 km/h (3 Bft) 95,74 %
14.05.2020 08:56 8,5 C 13,9 C 17,8 C 76 % 1020,3 hPa 0,0 l/m 2 min 0 min 429 W/m 12,9 km/h (3 Bft) 95,74 %
14.05.2020 08:58 8,7 C 13,9 C 18,3 C 75 % 1020,3 hPa 0,0 l/m 2 min 0 min 449 W/m 12,9 km/h (3 Bft) 93,62 %
14.05.2020 09:00 8,8 C 13,9 C 18,9 C 75 % 1020,3 hPa 0,0 l/m 2 min 0 min 455 W/m 6,4 km/h (2 Bft) 95,74 %
14.05.2020 09:02 9,0 C 14,4 C 19,4 C 74 % 1020,3 hPa 0,0 l/m 2 min 0 min 466 W/m 9,7 km/h (2 Bft) 95,74 %
14.05.2020 09:04 9,2 C 15,0 C 19,4 C 74 % 1020,2 hPa 0,0 l/m 2 min 0 min 472 W/m 6,4 km/h (2 Bft) 91,30 %
14.05.2020 09:06 9,3 C 14,4 C 20,0 C 73 % 1020,2 hPa 0,0 l/m 2 min 0 min 482 W/m 12,9 km/h (3 Bft) 95,74 %
14.05.2020 09:08 9,5 C 14,4 C 20,0 C 73 % 1020,3 hPa 0,0 l/m 2 min 0 min 488 W/m 9,7 km/h (2 Bft) 93,62 %
14.05.2020 09:10 9,7 C 14,4 C 20,0 C 73 % 1020,3 hPa 0,0 l/m 2 min 0 min 487 W/m 9,7 km/h (2 Bft) 97,87 %
14.05.2020 09:12 9,8 C 14,4 C 20,0 C 71 % 1020,3 hPa 0,0 l/m 2 min 0 min 488 W/m 3,2 km/h (1 Bft) 93,62 %
14.05.2020 09:14 9,9 C 14,4 C 20,0 C 71 % 1020,3 hPa 0,0 l/m 2 min 0 min 505 W/m 6,4 km/h (2 Bft) 100,00 %
14.05.2020 09:16 10,1 C 15,0 C 20,0 C 71 % 1020,4 hPa 0,0 l/m 2 min 0 min 511 W/m 6,4 km/h (2 Bft) 93,48 %
14.05.2020 09:18 10,2 C 15,6 C 20,6 C 71 % 1020,3 hPa 0,0 l/m 2 min 0 min 513 W/m 9,7 km/h (2 Bft) 100,00 %
14.05.2020 09:20 10,3 C 15,6 C 21,1 C 70 % 1020,3 hPa 0,0 l/m 2 min 0 min 525 W/m 9,7 km/h (2 Bft) 100,00 %
14.05.2020 09:22 10,4 C 15,6 C 21,1 C 70 % 1020,4 hPa 0,0 l/m 2 min 0 min 551 W/m 9,7 km/h (2 Bft) 95,74 %
14.05.2020 09:24 10,5 C 15,0 C 20,6 C 69 % 1020,3 hPa 0,0 l/m 2 min 0 min 555 W/m 6,4 km/h (2 Bft) 100,00 %
14.05.2020 09:26 10,6 C 13,9 C 19,4 C 69 % 1020,4 hPa 0,0 l/m 2 min 0 min 575 W/m 6,4 km/h (2 Bft) 97,83 %
14.05.2020 09:28 10,6 C 14,4 C 19,4 C 68 % 1020,5 hPa 0,0 l/m 2 min 0 min 582 W/m 6,4 km/h (2 Bft) 100,00 %
14.05.2020 09:30 10,7 C 13,9 C 18,3 C 68 % 1020,5 hPa 0,0 l/m 2 min 0 min 312 W/m 6,4 km/h (2 Bft) 97,87 %
14.05.2020 09:32 10,7 C 12,2 C 16,1 C 68 % 1020,5 hPa 0,0 l/m 0 min 0 min 172 W/m 6,4 km/h (2 Bft) 97,87 %
14.05.2020 09:34 10,6 C 10,6 C 13,3 C 67 % 1020,5 hPa 0,0 l/m 0 min 0 min 123 W/m 3,2 km/h (1 Bft) 100,00 %
14.05.2020 09:36 10,5 C 11,7 C 13,9 C 67 % 1020,6 hPa 0,0 l/m 0 min 0 min 129 W/m 6,4 km/h (2 Bft) 100,00 %
14.05.2020 09:38 10,4 C 12,8 C 15,6 C 67 % 1020,6 hPa 0,0 l/m 0 min 0 min 130 W/m 6,4 km/h (2 Bft) 100,00 %
14.05.2020 09:40 10,4 C 13,9 C 17,8 C 67 % 1020,6 hPa 0,0 l/m 0 min 0 min 130 W/m 12,9 km/h (3 Bft) 97,87 %
14.05.2020 09:42 10,5 C 14,4 C 18,3 C 68 % 1020,5 hPa 0,0 l/m 0 min 0 min 130 W/m 19,3 km/h (3 Bft) 100,00 %
14.05.2020 09:44 10,6 C 13,9 C 17,8 C 68 % 1020,6 hPa 0,0 l/m 0 min 0 min 195 W/m 12,9 km/h (3 Bft) 100,00 %
14.05.2020 09:46 10,6 C 13,3 C 16,7 C 67 % 1020,6 hPa 0,0 l/m 2 min 0 min 670 W/m 6,4 km/h (2 Bft) 100,00 %
14.05.2020 09:48 10,6 C 12,2 C 15,0 C 67 % 1020,6 hPa 0,0 l/m 2 min 0 min 336 W/m 6,4 km/h (2 Bft) 100,00 %
14.05.2020 09:50 10,6 C 12,8 C 16,1 C 67 % 1020,6 hPa 0,0 l/m 0 min 0 min 193 W/m 6,4 km/h (2 Bft) 100,00 %
14.05.2020 09:52 10,6 C 12,2 C 14,4 C 67 % 1020,5 hPa 0,0 l/m 0 min 0 min 176 W/m 12,9 km/h (3 Bft) 100,00 %
14.05.2020 09:54 10,5 C 10,6 C 12,8 C 67 % 1020,6 hPa 0,0 l/m 0 min 0 min 162 W/m 16,1 km/h (3 Bft) 100,00 %
14.05.2020 09:56 10,4 C 10,6 C 12,2 C 66 % 1020,6 hPa 0,0 l/m 0 min 0 min 173 W/m 6,4 km/h (2 Bft) 100,00 %
14.05.2020 09:58 10,4 C 10,6 C 11,7 C 67 % 1020,7 hPa 0,0 l/m 0 min 0 min 163 W/m 3,2 km/h (1 Bft) 100,00 %
14.05.2020 10:00 10,4 C 12,2 C 13,9 C 67 % 1020,7 hPa 0,0 l/m 0 min 0 min 132 W/m 3,2 km/h (1 Bft) 100,00 %
14.05.2020 10:02 10,3 C 11,1 C 12,2 C 67 % 1020,7 hPa 0,0 l/m 0 min 0 min 114 W/m 6,4 km/h (2 Bft) 100,00 %
14.05.2020 10:04 10,3 C 11,1 C 12,2 C 67 % 1020,7 hPa 0,0 l/m 0 min 0 min 92 W/m 6,4 km/h (2 Bft) 100,00 %
14.05.2020 10:06 10,3 C 13,9 C 16,7 C 68 % 1020,7 hPa 0,0 l/m 2 min 0 min 605 W/m 3,2 km/h (1 Bft) 100,00 %
14.05.2020 10:08 10,4 C 16,1 C 19,4 C 69 % 1020,7 hPa 0,0 l/m 2 min 0 min 714 W/m 6,4 km/h (2 Bft) 100,00 %
14.05.2020 10:10 10,5 C 15,6 C 18,9 C 69 % 1020,8 hPa 0,0 l/m 2 min 0 min 717 W/m 3,2 km/h (1 Bft) 100,00 %
14.05.2020 10:12 10,6 C 15,6 C 19,4 C 68 % 1020,8 hPa 0,0 l/m 2 min 0 min 719 W/m 9,7 km/h (2 Bft) 100,00 %
14.05.2020 10:14 10,7 C 13,3 C 17,2 C 67 % 1020,8 hPa 0,0 l/m 2 min 0 min 403 W/m 3,2 km/h (1 Bft) 100,00 %
14.05.2020 10:16 10,8 C 13,3 C 16,1 C 68 % 1020,8 hPa 0,0 l/m 0 min 0 min 150 W/m 3,2 km/h (1 Bft) 100,00 %
14.05.2020 10:18 10,8 C 13,9 C 16,7 C 68 % 1020,8 hPa 0,0 l/m 0 min 0 min 162 W/m 16,1 km/h (3 Bft) 100,00 %
14.05.2020 10:20 10,9 C 15,6 C 18,9 C 68 % 1020,8 hPa 0,0 l/m 2 min 0 min 705 W/m 12,9 km/h (3 Bft) 100,00 %
14.05.2020 10:22 11,0 C 16,7 C 20,6 C 68 % 1020,8 hPa 0,0 l/m 2 min 0 min 733 W/m 3,2 km/h (1 Bft) 100,00 %
14.05.2020 10:24 11,2 C 16,1 C 21,1 C 68 % 1020,8 hPa 0,0 l/m 2 min 0 min 752 W/m 9,7 km/h (2 Bft) 100,00 %
14.05.2020 10:26 11,3 C 15,6 C 19,4 C 67 % 1020,8 hPa 0,0 l/m 2 min 0 min 763 W/m 12,9 km/h (3 Bft) 100,00 %
14.05.2020 10:28 11,3 C 16,7 C 21,1 C 67 % 1020,7 hPa 0,0 l/m 2 min 0 min 779 W/m 6,4 km/h (2 Bft) 100,00 %
14.05.2020 10:30 11,6 C 15,6 C 19,4 C 67 % 1020,8 hPa 0,0 l/m 2 min 0 min 780 W/m 3,2 km/h (1 Bft) 100,00 %
14.05.2020 10:32 11,6 C 16,1 C 20,0 C 65 % 1020,7 hPa 0,0 l/m 0 min 0 min 218 W/m 12,9 km/h (3 Bft) 97,83 %
14.05.2020 10:34 11,7 C 16,7 C 21,1 C 64 % 1020,7 hPa 0,0 l/m 2 min 0 min 807 W/m 12,9 km/h (3 Bft) 100,00 %
14.05.2020 10:36 11,8 C 17,8 C 22,2 C 65 % 1020,7 hPa 0,0 l/m 2 min 0 min 840 W/m 12,9 km/h (3 Bft) 100,00 %
14.05.2020 10:38 12,0 C 17,2 C 22,2 C 65 % 1020,8 hPa 0,0 l/m 2 min 0 min 761 W/m 6,4 km/h (2 Bft) 100,00 %
14.05.2020 10:40 12,2 C 18,9 C 23,9 C 65 % 1020,8 hPa 0,0 l/m 2 min 0 min 832 W/m 6,4 km/h (2 Bft) 100,00 %
14.05.2020 10:42 12,3 C 19,4 C 24,4 C 64 % 1020,8 hPa 0,0 l/m 2 min 0 min 820 W/m 3,2 km/h (1 Bft) 100,00 %
14.05.2020 10:44 12,6 C 20,6 C 25,6 C 65 % 1020,8 hPa 0,0 l/m 2 min 0 min 866 W/m 6,4 km/h (2 Bft) 97,83 %
14.05.2020 10:46 12,8 C 20,6 C 25,6 C 64 % 1020,8 hPa 0,0 l/m 2 min 0 min 903 W/m 9,7 km/h (2 Bft) 100,00 %
14.05.2020 10:48 13,0 C 21,1 C 26,7 C 64 % 1020,8 hPa 0,0 l/m 2 min 0 min 867 W/m 9,7 km/h (2 Bft) 97,87 %
14.05.2020 10:50 13,2 C 20,0 C 25,0 C 63 % 1020,7 hPa 0,0 l/m 2 min 0 min 803 W/m 3,2 km/h (1 Bft) 100,00 %
14.05.2020 10:52 13,4 C 19,4 C 25,0 C 62 % 1020,8 hPa 0,0 l/m 2 min 0 min 803 W/m 6,4 km/h (2 Bft) 97,87 %
14.05.2020 10:54 13,5 C 19,4 C 24,4 C 61 % 1020,7 hPa 0,0 l/m 2 min 0 min 883 W/m 9,7 km/h (2 Bft) 100,00 %
14.05.2020 10:56 13,6 C 17,8 C 21,7 C 61 % 1020,8 hPa 0,0 l/m 2 min 0 min 889 W/m 6,4 km/h (2 Bft) 100,00 %
14.05.2020 10:58 13,6 C 17,8 C 20,6 C 59 % 1020,7 hPa 0,0 l/m 2 min 0 min 883 W/m 6,4 km/h (2 Bft) 97,87 %
14.05.2020 11:00 13,7 C 17,2 C 18,9 C 60 % 1020,7 hPa 0,0 l/m 2 min 0 min 593 W/m 9,7 km/h (2 Bft) 100,00 %
14.05.2020 11:02 13,7 C 17,2 C 18,3 C 61 % 1020,7 hPa 0,0 l/m 0 min 0 min 265 W/m 3,2 km/h (1 Bft) 97,87 %
14.05.2020 11:04 13,7 C 17,2 C 18,3 C 59 % 1020,7 hPa 0,0 l/m 0 min 0 min 265 W/m 6,4 km/h (2 Bft) 95,74 %
14.05.2020 11:06 13,6 C 15,6 C 16,7 C 58 % 1020,7 hPa 0,0 l/m 0 min 0 min 261 W/m 9,7 km/h (2 Bft) 97,87 %
14.05.2020 11:08 13,5 C 15,0 C 15,6 C 57 % 1020,8 hPa 0,0 l/m 0 min 0 min 177 W/m 3,2 km/h (1 Bft) 95,65 %
14.05.2020 11:10 13,5 C 16,7 C 15,6 C 59 % 1020,7 hPa 0,0 l/m 0 min 0 min 185 W/m 12,9 km/h (3 Bft) 97,87 %
14.05.2020 11:12 13,5 C 18,3 C 16,1 C 59 % 1020,7 hPa 0,0 l/m 2 min 0 min 500 W/m 6,4 km/h (2 Bft) 97,87 %
14.05.2020 11:14 13,6 C 19,4 C 16,1 C 59 % 1020,7 hPa 0,0 l/m 2 min 0 min 852 W/m 6,4 km/h (2 Bft) 95,74 %
14.05.2020 11:16 13,6 C 20,0 C 16,7 C 59 % 1020,7 hPa 0,0 l/m 2 min 0 min 874 W/m 9,7 km/h (2 Bft) 95,74 %
14.05.2020 11:18 13,7 C 21,1 C 16,7 C 59 % 1020,7 hPa 0,0 l/m 2 min 0 min 875 W/m 6,4 km/h (2 Bft) 95,65 %
14.05.2020 11:20 13,8 C 20,6 C 16,7 C 57 % 1020,7 hPa 0,0 l/m 2 min 0 min 900 W/m 6,4 km/h (2 Bft) 95,74 %
14.05.2020 11:22 13,9 C 20,0 C 17,2 C 57 % 1020,7 hPa 0,0 l/m 2 min 0 min 924 W/m 12,9 km/h (3 Bft) 95,74 %
14.05.2020 11:24 14,1 C 20,6 C 17,2 C 57 % 1020,8 hPa 0,0 l/m 2 min 0 min 953 W/m 9,7 km/h (2 Bft) 95,74 %
14.05.2020 11:26 14,2 C 21,7 C 17,8 C 58 % 1020,8 hPa 0,0 l/m 2 min 0 min 983 W/m 9,7 km/h (2 Bft) 91,49 %
14.05.2020 11:28 14,3 C 22,8 C 17,8 C 59 % 1020,8 hPa 0,0 l/m 2 min 0 min 993 W/m 3,2 km/h (1 Bft) 95,74 %
14.05.2020 11:30 14,5 C 22,2 C 18,3 C 58 % 1020,8 hPa 0,0 l/m 2 min 0 min 969 W/m 9,7 km/h (2 Bft) 95,65 %
14.05.2020 11:32 14,7 C 22,2 C 18,9 C 56 % 1020,8 hPa 0,0 l/m 2 min 0 min 976 W/m 9,7 km/h (2 Bft) 95,74 %
14.05.2020 11:34 14,8 C 20,6 C 18,3 C 56 % 1020,8 hPa 0,0 l/m 2 min 0 min 1019 W/m 3,2 km/h (1 Bft) 95,74 %
14.05.2020 11:36 14,9 C 17,8 C 16,7 C 54 % 1020,9 hPa 0,0 l/m 2 min 0 min 1021 W/m 9,7 km/h (2 Bft) 95,74 %
14.05.2020 11:38 14,9 C 18,9 C 16,1 C 54 % 1020,8 hPa 0,0 l/m 2 min 0 min 1016 W/m 9,7 km/h (2 Bft) 95,74 %
14.05.2020 11:40 14,9 C 18,9 C 16,1 C 54 % 1020,9 hPa 0,0 l/m 2 min 0 min 982 W/m 12,9 km/h (3 Bft) 95,74 %
14.05.2020 11:42 14,9 C 16,7 C 15,6 C 55 % 1020,9 hPa 0,0 l/m 2 min 0 min 529 W/m 3,2 km/h (1 Bft) 95,65 %
14.05.2020 11:44 14,8 C 16,1 C 15,0 C 55 % 1020,9 hPa 0,0 l/m 0 min 0 min 191 W/m 0,0 km/h (0 Bft) 95,74 %
14.05.2020 11:46 14,7 C 14,4 C 13,9 C 54 % 1020,8 hPa 0,0 l/m 0 min 0 min 216 W/m 6,4 km/h (2 Bft) 97,87 %
14.05.2020 11:48 14,6 C 16,7 C 14,4 C 55 % 1020,9 hPa 0,0 l/m 0 min 0 min 358 W/m 6,4 km/h (2 Bft) 97,87 %
14.05.2020 11:50 14,5 C 19,4 C 15,6 C 55 % 1020,8 hPa 0,0 l/m 2 min 0 min 974 W/m 3,2 km/h (1 Bft) 97,87 %
14.05.2020 11:52 14,6 C 20,0 C 16,7 C 55 % 1020,7 hPa 0,0 l/m 2 min 0 min 977 W/m 12,9 km/h (3 Bft) 97,87 %
14.05.2020 11:54 14,7 C 21,7 C 17,8 C 56 % 1020,8 hPa 0,0 l/m 2 min 0 min 983 W/m 3,2 km/h (1 Bft) 95,65 %
14.05.2020 11:56 14,8 C 22,2 C 18,3 C 56 % 1020,8 hPa 0,0 l/m 2 min 0 min 1008 W/m 6,4 km/h (2 Bft) 97,87 %
14.05.2020 11:58 14,9 C 22,2 C 18,9 C 55 % 1020,7 hPa 0,0 l/m 2 min 0 min 1013 W/m 6,4 km/h (2 Bft) 97,87 %
14.05.2020 12:00 15,1 C 22,8 C 18,3 C 55 % 1020,8 hPa 0,0 l/m 2 min 0 min 1056 W/m 6,4 km/h (2 Bft) 97,87 %
14.05.2020 12:02 15,2 C 22,2 C 18,9 C 55 % 1020,8 hPa 0,0 l/m 2 min 0 min 1057 W/m 9,7 km/h (2 Bft) 97,87 %
14.05.2020 12:04 15,2 C 18,3 C 16,7 C 53 % 1020,8 hPa 0,0 l/m 2 min 0 min 1069 W/m 9,7 km/h (2 Bft) 100,00 %
14.05.2020 12:08 15,0 C 15,0 C 15,0 C 52 % 1020,8 hPa 0,0 l/m 0 min 0 min 246 W/m 9,7 km/h (2 Bft) 97,85 %
14.05.2020 12:10 14,9 C 16,7 C 15,0 C 53 % 1020,8 hPa 0,0 l/m 0 min 0 min 282 W/m 3,2 km/h (1 Bft) 100,00 %
14.05.2020 12:12 14,8 C 17,8 C 16,1 C 54 % 1020,8 hPa 0,0 l/m 2 min 0 min 1079 W/m 3,2 km/h (1 Bft) 100,00 %
14.05.2020 12:14 14,8 C 18,3 C 16,1 C 54 % 1020,8 hPa 0,0 l/m 2 min 0 min 1079 W/m 6,4 km/h (2 Bft) 100,00 %
14.05.2020 12:16 14,8 C 17,8 C 15,6 C 53 % 1020,8 hPa 0,0 l/m 0 min 0 min 279 W/m 9,7 km/h (2 Bft) 97,83 %
14.05.2020 12:18 14,8 C 19,4 C 15,6 C 55 % 1020,8 hPa 0,0 l/m 2 min 0 min 672 W/m 3,2 km/h (1 Bft) 97,87 %
14.05.2020 12:20 14,8 C 20,6 C 15,6 C 55 % 1020,8 hPa 0,0 l/m 2 min 0 min 994 W/m 3,2 km/h (1 Bft) 97,87 %
14.05.2020 12:22 14,8 C 20,6 C 16,1 C 53 % 1020,8 hPa 0,0 l/m 2 min 0 min 1001 W/m 9,7 km/h (2 Bft) 97,87 %
14.05.2020 12:24 14,8 C 20,0 C 16,1 C 53 % 1020,8 hPa 0,0 l/m 2 min 0 min 1005 W/m 9,7 km/h (2 Bft) 100,00 %
14.05.2020 12:26 14,9 C 20,0 C 15,6 C 52 % 1020,8 hPa 0,0 l/m 2 min 0 min 904 W/m 6,4 km/h (2 Bft) 100,00 %
14.05.2020 12:28 14,9 C 20,6 C 16,1 C 53 % 1020,8 hPa 0,0 l/m 2 min 0 min 880 W/m 6,4 km/h (2 Bft) 100,00 %
14.05.2020 12:30 15,0 C 21,1 C 16,7 C 52 % 1020,8 hPa 0,0 l/m 2 min 0 min 997 W/m 6,4 km/h (2 Bft) 100,00 %
14.05.2020 12:32 15,1 C 21,7 C 18,3 C 53 % 1020,8 hPa 0,0 l/m 2 min 0 min 1007 W/m 6,4 km/h (2 Bft) 100,00 %
14.05.2020 12:34 15,2 C 22,2 C 17,2 C 53 % 1020,7 hPa 0,0 l/m 2 min 0 min 994 W/m 3,2 km/h (1 Bft) 100,00 %
14.05.2020 12:36 15,3 C 22,2 C 17,2 C 51 % 1020,7 hPa 0,0 l/m 2 min 0 min 1000 W/m 6,4 km/h (2 Bft) 100,00 %
14.05.2020 12:38 15,3 C 21,7 C 17,8 C 51 % 1020,7 hPa 0,0 l/m 2 min 0 min 995 W/m 9,7 km/h (2 Bft) 100,00 %
14.05.2020 12:40 15,4 C 21,7 C 17,8 C 51 % 1020,6 hPa 0,0 l/m 2 min 0 min 981 W/m 6,4 km/h (2 Bft) 100,00 %
14.05.2020 12:42 15,6 C 22,2 C 18,9 C 51 % 1020,6 hPa 0,0 l/m 2 min 0 min 985 W/m 9,7 km/h (2 Bft) 100,00 %
14.05.2020 12:44 15,7 C 22,8 C 18,9 C 52 % 1020,7 hPa 0,0 l/m 2 min 0 min 993 W/m 3,2 km/h (1 Bft) 100,00 %
14.05.2020 12:46 15,9 C 23,3 C 18,9 C 51 % 1020,7 hPa 0,0 l/m 2 min 0 min 983 W/m 6,4 km/h (2 Bft) 97,87 %
14.05.2020 12:48 16,1 C 23,3 C 20,0 C 51 % 1020,7 hPa 0,0 l/m 2 min 0 min 997 W/m 6,4 km/h (2 Bft) 97,87 %
14.05.2020 12:50 16,2 C 23,3 C 19,4 C 51 % 1020,7 hPa 0,0 l/m 2 min 0 min 1024 W/m 12,9 km/h (3 Bft) 100,00 %
14.05.2020 12:52 16,3 C 21,7 C 18,9 C 50 % 1020,6 hPa 0,0 l/m 2 min 0 min 1023 W/m 6,4 km/h (2 Bft) 100,00 %
14.05.2020 12:54 16,3 C 21,1 C 18,3 C 49 % 1020,6 hPa 0,0 l/m 2 min 0 min 1031 W/m 9,7 km/h (2 Bft) 100,00 %
14.05.2020 12:56 16,4 C 22,8 C 18,3 C 49 % 1020,6 hPa 0,0 l/m 2 min 0 min 1066 W/m 3,2 km/h (1 Bft) 100,00 %
14.05.2020 12:58 16,5 C 22,8 C 18,9 C 49 % 1020,6 hPa 0,0 l/m 2 min 0 min 1044 W/m 9,7 km/h (2 Bft) 97,87 %
14.05.2020 13:00 16,6 C 23,3 C 18,9 C 50 % 1020,6 hPa 0,0 l/m 2 min 0 min 1048 W/m 12,9 km/h (3 Bft) 100,00 %
14.05.2020 13:02 16,7 C 21,1 C 18,3 C 48 % 1020,5 hPa 0,0 l/m 2 min 0 min 1076 W/m 3,2 km/h (1 Bft) 100,00 %
14.05.2020 13:04 16,7 C 19,4 C 17,8 C 47 % 1020,5 hPa 0,0 l/m 0 min 0 min 247 W/m 9,7 km/h (2 Bft) 100,00 %
14.05.2020 13:06 16,6 C 19,4 C 17,8 C 47 % 1020,4 hPa 0,0 l/m 0 min 0 min 229 W/m 6,4 km/h (2 Bft) 100,00 %
14.05.2020 13:08 16,6 C 18,9 C 17,8 C 48 % 1020,5 hPa 0,0 l/m 0 min 0 min 254 W/m 6,4 km/h (2 Bft) 100,00 %
14.05.2020 13:10 16,4 C 16,7 C 16,7 C 47 % 1020,5 hPa 0,0 l/m 0 min 0 min 280 W/m 12,9 km/h (3 Bft) 100,00 %
14.05.2020 13:12 16,2 C 16,1 C 16,7 C 47 % 1020,5 hPa 0,0 l/m 0 min 0 min 318 W/m 6,4 km/h (2 Bft) 100,00 %
14.05.2020 13:14 16,1 C 16,1 C 16,1 C 47 % 1020,5 hPa 0,0 l/m 0 min 0 min 329 W/m 9,7 km/h (2 Bft) 100,00 %
14.05.2020 13:16 15,9 C 18,9 C 16,7 C 49 % 1020,5 hPa 0,0 l/m 2 min 0 min 483 W/m 6,4 km/h (2 Bft) 100,00 %
14.05.2020 13:18 15,9 C 20,6 C 17,2 C 50 % 1020,5 hPa 0,0 l/m 2 min 0 min 1022 W/m 12,9 km/h (3 Bft) 100,00 %
14.05.2020 13:20 15,9 C 21,7 C 17,8 C 50 % 1020,4 hPa 0,0 l/m 2 min 0 min 1006 W/m 6,4 km/h (2 Bft) 100,00 %
14.05.2020 13:22 15,9 C 22,2 C 18,3 C 51 % 1020,4 hPa 0,0 l/m 2 min 0 min 1037 W/m 12,9 km/h (3 Bft) 100,00 %
14.05.2020 13:24 16,0 C 22,8 C 18,9 C 50 % 1020,3 hPa 0,0 l/m 2 min 0 min 1075 W/m 6,4 km/h (2 Bft) 100,00 %
14.05.2020 13:26 16,1 C 22,2 C 20,0 C 48 % 1020,3 hPa 0,0 l/m 2 min 0 min 1060 W/m 6,4 km/h (2 Bft) 100,00 %
14.05.2020 13:28 16,2 C 21,1 C 22,2 C 46 % 1020,3 hPa 0,0 l/m 2 min 0 min 1060 W/m 16,1 km/h (3 Bft) 100,00 %
14.05.2020 13:30 16,2 C 22,2 C 24,4 C 47 % 1020,3 hPa 0,0 l/m 2 min 0 min 1066 W/m 12,9 km/h (3 Bft) 97,87 %
14.05.2020 13:32 16,3 C 22,2 C 25,0 C 46 % 1020,3 hPa 0,0 l/m 2 min 0 min 1036 W/m 12,9 km/h (3 Bft) 97,87 %
14.05.2020 13:34 16,4 C 22,8 C 27,2 C 48 % 1020,3 hPa 0,0 l/m 2 min 0 min 1053 W/m 6,4 km/h (2 Bft) 97,87 %
14.05.2020 13:36 16,6 C 22,8 C 27,2 C 47 % 1020,3 hPa 0,0 l/m 2 min 0 min 1101 W/m 9,7 km/h (2 Bft) 97,87 %
14.05.2020 13:38 16,6 C 22,2 C 27,8 C 46 % 1020,3 hPa 0,0 l/m 2 min 0 min 1145 W/m 9,7 km/h (2 Bft) 97,83 %
14.05.2020 13:40 16,7 C 20,6 C 25,6 C 46 % 1020,3 hPa 0,0 l/m 2 min 0 min 1164 W/m 12,9 km/h (3 Bft) 97,87 %
14.05.2020 13:42 16,7 C 21,1 C 25,6 C 49 % 1020,2 hPa 0,0 l/m 2 min 0 min 1160 W/m 12,9 km/h (3 Bft) 97,87 %
14.05.2020 13:44 16,7 C 18,9 C 22,2 C 48 % 1020,3 hPa 0,0 l/m 2 min 0 min 720 W/m 12,9 km/h (3 Bft) 95,74 %
14.05.2020 13:46 16,6 C 17,8 C 20,6 C 47 % 1020,3 hPa 0,0 l/m 0 min 0 min 248 W/m 3,2 km/h (1 Bft) 97,87 %
14.05.2020 13:48 16,5 C 19,4 C 23,3 C 46 % 1020,3 hPa 0,0 l/m 2 min 0 min 844 W/m 6,4 km/h (2 Bft) 97,87 %
14.05.2020 13:50 16,4 C 20,6 C 25,0 C 47 % 1020,3 hPa 0,0 l/m 2 min 0 min 1002 W/m 9,7 km/h (2 Bft) 97,83 %
14.05.2020 13:52 16,4 C 21,7 C 26,1 C 48 % 1020,3 hPa 0,0 l/m 2 min 0 min 1008 W/m 3,2 km/h (1 Bft) 97,87 %
14.05.2020 13:54 16,6 C 22,8 C 27,8 C 49 % 1020,2 hPa 0,0 l/m 2 min 0 min 1031 W/m 6,4 km/h (2 Bft) 97,87 %
14.05.2020 13:56 16,6 C 23,3 C 27,2 C 48 % 1020,3 hPa 0,0 l/m 2 min 0 min 1041 W/m 9,7 km/h (2 Bft) 97,87 %
14.05.2020 13:58 16,7 C 22,8 C 26,1 C 47 % 1020,1 hPa 0,0 l/m 2 min 0 min 1012 W/m 6,4 km/h (2 Bft) 97,87 %
14.05.2020 14:00 16,8 C 23,9 C 26,1 C 50 % 1020,2 hPa 0,0 l/m 2 min 0 min 1038 W/m 3,2 km/h (1 Bft) 95,74 %
14.05.2020 14:02 16,9 C 22,8 C 25,6 C 48 % 1020,3 hPa 0,0 l/m 2 min 0 min 1045 W/m 6,4 km/h (2 Bft) 91,30 %
14.05.2020 14:04 16,9 C 22,8 C 25,6 C 45 % 1020,1 hPa 0,0 l/m 2 min 0 min 1045 W/m 9,7 km/h (2 Bft) 95,74 %
14.05.2020 14:06 17,0 C 23,3 C 26,7 C 46 % 1020,1 hPa 0,0 l/m 2 min 0 min 1100 W/m 12,9 km/h (3 Bft) 93,62 %
14.05.2020 14:08 17,1 C 22,8 C 26,7 C 46 % 1020,0 hPa 0,0 l/m 2 min 0 min 1134 W/m 9,7 km/h (2 Bft) 95,74 %
14.05.2020 14:10 17,1 C 20,6 C 24,4 C 46 % 1020,0 hPa 0,0 l/m 2 min 0 min 550 W/m 3,2 km/h (1 Bft) 95,74 %
14.05.2020 14:12 17,1 C 18,9 C 22,2 C 46 % 1020,0 hPa 0,0 l/m 0 min 0 min 227 W/m 6,4 km/h (2 Bft) 95,74 %
14.05.2020 14:14 17,0 C 20,0 C 23,9 C 47 % 1020,0 hPa 0,0 l/m 2 min 0 min 615 W/m 12,9 km/h (3 Bft) 97,83 %
14.05.2020 14:16 16,9 C 18,9 C 22,8 C 47 % 1020,0 hPa 0,0 l/m 2 min 0 min 997 W/m 12,9 km/h (3 Bft) 97,87 %
14.05.2020 14:18 16,8 C 20,0 C 23,9 C 46 % 1019,9 hPa 0,0 l/m 2 min 0 min 992 W/m 9,7 km/h (2 Bft) 95,74 %
14.05.2020 14:20 16,8 C 21,1 C 24,4 C 46 % 1019,9 hPa 0,0 l/m 2 min 0 min 979 W/m 16,1 km/h (3 Bft) 97,87 %
14.05.2020 14:22 16,8 C 22,2 C 24,4 C 47 % 1019,9 hPa 0,0 l/m 2 min 0 min 978 W/m 6,4 km/h (2 Bft) 97,87 %
14.05.2020 14:24 16,9 C 23,3 C 23,9 C 48 % 1019,8 hPa 0,0 l/m 2 min 0 min 1012 W/m 3,2 km/h (1 Bft) 97,87 %
14.05.2020 14:26 16,9 C 22,8 C 23,3 C 47 % 1019,8 hPa 0,0 l/m 2 min 0 min 1062 W/m 3,2 km/h (1 Bft) 95,65 %
14.05.2020 14:28 17,1 C 22,8 C 23,3 C 46 % 1019,7 hPa 0,0 l/m 2 min 0 min 1079 W/m 12,9 km/h (3 Bft) 97,87 %
14.05.2020 14:30 17,1 C 20,6 C 21,7 C 46 % 1019,7 hPa 0,0 l/m 2 min 0 min 1079 W/m 12,9 km/h (3 Bft) 97,87 %
14.05.2020 14:32 17,0 C 18,9 C 20,0 C 46 % 1019,7 hPa 0,0 l/m 0 min 0 min 360 W/m 9,7 km/h (2 Bft) 97,87 %
14.05.2020 14:34 16,9 C 18,9 C 18,9 C 46 % 1019,8 hPa 0,0 l/m 0 min 0 min 320 W/m 3,2 km/h (1 Bft) 97,87 %
14.05.2020 14:36 16,8 C 20,0 C 18,3 C 45 % 1019,8 hPa 0,0 l/m 2 min 0 min 867 W/m 19,3 km/h (3 Bft) 97,87 %
14.05.2020 14:38 16,8 C 21,1 C 18,3 C 47 % 1019,8 hPa 0,0 l/m 2 min 0 min 961 W/m 9,7 km/h (2 Bft) 97,83 %
14.05.2020 14:40 16,8 C 22,2 C 17,8 C 46 % 1019,7 hPa 0,0 l/m 2 min 0 min 953 W/m 3,2 km/h (1 Bft) 97,87 %
14.05.2020 14:42 16,9 C 22,2 C 17,8 C 47 % 1019,7 hPa 0,0 l/m 2 min 0 min 944 W/m 6,4 km/h (2 Bft) 97,87 %
14.05.2020 14:44 16,9 C 22,2 C 17,8 C 46 % 1019,7 hPa 0,0 l/m 2 min 0 min 939 W/m 6,4 km/h (2 Bft) 97,87 %
14.05.2020 14:46 17,0 C 22,8 C 17,8 C 47 % 1019,7 hPa 0,0 l/m 2 min 0 min 941 W/m 6,4 km/h (2 Bft) 97,87 %
14.05.2020 14:48 17,1 C 23,3 C 17,8 C 47 % 1019,6 hPa 0,0 l/m 2 min 0 min 938 W/m 6,4 km/h (2 Bft) 97,14 %
14.05.2020 14:50 17,2 C 22,8 C 17,2 C 45 % 1019,7 hPa 0,0 l/m 2 min 0 min 943 W/m 19,3 km/h (3 Bft) 97,87 %
14.05.2020 14:52 17,2 C 21,1 C 17,2 C 44 % 1019,7 hPa 0,0 l/m 2 min 0 min 943 W/m 16,1 km/h (3 Bft) 100,00 %
14.05.2020 14:54 17,2 C 22,2 C 17,2 C 45 % 1019,6 hPa 0,0 l/m 2 min 0 min 939 W/m 6,4 km/h (2 Bft) 97,87 %
14.05.2020 14:56 17,2 C 22,8 C 17,2 C 46 % 1019,5 hPa 0,0 l/m 2 min 0 min 937 W/m 6,4 km/h (2 Bft) 100,00 %
14.05.2020 14:58 17,3 C 22,8 C 17,2 C 46 % 1019,5 hPa 0,0 l/m 2 min 0 min 943 W/m 9,7 km/h (2 Bft) 100,00 %
14.05.2020 15:00 17,3 C 22,8 C 17,2 C 46 % 1019,5 hPa 0,0 l/m 2 min 0 min 946 W/m 9,7 km/h (2 Bft) 100,00 %
14.05.2020 15:02 17,4 C 23,3 C 17,8 C 47 % 1019,5 hPa 0,0 l/m 2 min 0 min 967 W/m 6,4 km/h (2 Bft) 100,00 %
14.05.2020 15:04 17,6 C 23,3 C 17,8 C 46 % 1019,5 hPa 0,0 l/m 2 min 0 min 966 W/m 9,7 km/h (2 Bft) 97,83 %
14.05.2020 15:06 17,6 C 20,0 C 16,7 C 43 % 1019,5 hPa 0,0 l/m 2 min 0 min 581 W/m 6,4 km/h (2 Bft) 97,87 %
14.05.2020 15:08 17,5 C 20,0 C 16,7 C 43 % 1019,5 hPa 0,0 l/m 0 min 0 min 321 W/m 6,4 km/h (2 Bft) 98,31 %
14.05.2020 15:10 17,4 C 20,6 C 16,7 C 44 % 1019,6 hPa 0,0 l/m 2 min 0 min 918 W/m 12,9 km/h (3 Bft) 100,00 %
14.05.2020 15:12 17,4 C 21,7 C 16,7 C 45 % 1019,5 hPa 0,0 l/m 2 min 0 min 905 W/m 6,4 km/h (2 Bft) 100,00 %
14.05.2020 15:14 17,4 C 22,2 C 16,7 C 43 % 1019,5 hPa 0,0 l/m 2 min 0 min 902 W/m 6,4 km/h (2 Bft) 97,87 %
14.05.2020 15:16 17,4 C 22,2 C 16,7 C 45 % 1019,5 hPa 0,0 l/m 2 min 0 min 900 W/m 6,4 km/h (2 Bft) 97,83 %
14.05.2020 15:18 17,5 C 22,8 C 16,7 C 44 % 1019,5 hPa 0,0 l/m 2 min 0 min 895 W/m 6,4 km/h (2 Bft) 97,87 %
14.05.2020 15:20 17,5 C 22,8 C 16,7 C 43 % 1019,4 hPa 0,0 l/m 2 min 0 min 894 W/m 16,1 km/h (3 Bft) 100,00 %
14.05.2020 15:22 17,6 C 22,2 C 16,7 C 43 % 1019,3 hPa 0,0 l/m 2 min 0 min 889 W/m 9,7 km/h (2 Bft) 100,00 %
14.05.2020 15:24 17,6 C 21,7 C 16,7 C 43 % 1019,2 hPa 0,0 l/m 2 min 0 min 887 W/m 9,7 km/h (2 Bft) 97,87 %
14.05.2020 15:26 17,6 C 21,7 C 17,2 C 43 % 1019,3 hPa 0,0 l/m 2 min 0 min 891 W/m 6,4 km/h (2 Bft) 97,87 %
14.05.2020 15:28 17,6 C 22,2 C 17,2 C 45 % 1019,4 hPa 0,0 l/m 2 min 0 min 881 W/m 6,4 km/h (2 Bft) 97,83 %
14.05.2020 15:30 17,7 C 22,8 C 17,2 C 47 % 1019,4 hPa 0,0 l/m 2 min 0 min 872 W/m 3,2 km/h (1 Bft) 100,00 %
14.05.2020 15:32 17,8 C 23,3 C 17,2 C 47 % 1019,4 hPa 0,0 l/m 2 min 0 min 876 W/m 9,7 km/h (2 Bft) 100,00 %
14.05.2020 15:34 17,8 C 21,7 C 17,2 C 43 % 1019,4 hPa 0,0 l/m 2 min 0 min 869 W/m 16,1 km/h (3 Bft) 100,00 %
14.05.2020 15:36 17,8 C 21,1 C 16,7 C 42 % 1019,3 hPa 0,0 l/m 2 min 0 min 865 W/m 16,1 km/h (3 Bft) 97,87 %
14.05.2020 15:38 17,8 C 21,7 C 16,7 C 45 % 1019,3 hPa 0,0 l/m 2 min 0 min 862 W/m 3,2 km/h (1 Bft) 96,55 %
14.05.2020 15:40 17,7 C 21,1 C 16,7 C 43 % 1019,3 hPa 0,0 l/m 2 min 0 min 858 W/m 12,9 km/h (3 Bft) 97,14 %
14.05.2020 15:42 17,6 C 21,1 C 16,7 C 42 % 1019,3 hPa 0,0 l/m 2 min 0 min 853 W/m 9,7 km/h (2 Bft) 97,87 %
14.05.2020 15:44 17,6 C 21,1 C 16,7 C 43 % 1019,2 hPa 0,0 l/m 2 min 0 min 851 W/m 9,7 km/h (2 Bft) 95,74 %
14.05.2020 15:46 17,6 C 21,7 C 16,7 C 43 % 1019,2 hPa 0,0 l/m 2 min 0 min 847 W/m 12,9 km/h (3 Bft) 97,87 %
14.05.2020 15:48 17,5 C 21,1 C 16,7 C 42 % 1019,2 hPa 0,0 l/m 2 min 0 min 844 W/m 16,1 km/h (3 Bft) 95,74 %
14.05.2020 15:50 17,6 C 21,7 C 16,7 C 43 % 1019,0 hPa 0,0 l/m 2 min 0 min 838 W/m 12,9 km/h (3 Bft) 95,65 %
14.05.2020 15:52 17,5 C 21,1 C 16,7 C 43 % 1019,1 hPa 0,0 l/m 2 min 0 min 831 W/m 9,7 km/h (2 Bft) 93,62 %
14.05.2020 15:54 17,6 C 21,7 C 17,2 C 43 % 1019,1 hPa 0,0 l/m 2 min 0 min 830 W/m 9,7 km/h (2 Bft) 95,74 %
14.05.2020 15:56 17,6 C 21,7 C 17,2 C 43 % 1019,1 hPa 0,0 l/m 2 min 0 min 826 W/m 6,4 km/h (2 Bft) 95,74 %
14.05.2020 15:58 17,6 C 20,6 C 16,7 C 41 % 1019,0 hPa 0,0 l/m 2 min 0 min 824 W/m 16,1 km/h (3 Bft) 95,74 %
14.05.2020 16:00 17,6 C 20,6 C 16,7 C 42 % 1019,0 hPa 0,0 l/m 2 min 0 min 817 W/m 9,7 km/h (2 Bft) 95,74 %
14.05.2020 16:02 17,5 C 20,6 C 16,7 C 43 % 1019,0 hPa 0,0 l/m 2 min 0 min 811 W/m 6,4 km/h (2 Bft) 95,65 %
14.05.2020 16:04 17,6 C 21,1 C 17,2 C 44 % 1019,0 hPa 0,0 l/m 2 min 0 min 798 W/m 9,7 km/h (2 Bft) 93,62 %
14.05.2020 16:06 17,6 C 21,1 C 17,2 C 42 % 1019,0 hPa 0,0 l/m 2 min 0 min 803 W/m 6,4 km/h (2 Bft) 95,74 %
14.05.2020 16:08 17,6 C 21,1 C 17,2 C 42 % 1019,1 hPa 0,0 l/m 2 min 0 min 801 W/m 16,1 km/h (3 Bft) 93,62 %
14.05.2020 16:10 17,6 C 21,1 C 17,2 C 43 % 1019,1 hPa 0,0 l/m 2 min 0 min 796 W/m 6,4 km/h (2 Bft) 95,74 %
14.05.2020 16:12 17,6 C 21,1 C 17,2 C 42 % 1019,1 hPa 0,0 l/m 2 min 0 min 789 W/m 9,7 km/h (2 Bft) 95,74 %
14.05.2020 16:14 17,6 C 21,1 C 17,2 C 43 % 1019,1 hPa 0,0 l/m 2 min 0 min 782 W/m 12,9 km/h (3 Bft) 91,30 %
14.05.2020 16:16 17,6 C 21,7 C 17,2 C 43 % 1019,0 hPa 0,0 l/m 2 min 0 min 780 W/m 6,4 km/h (2 Bft) 93,62 %
14.05.2020 16:18 17,7 C 21,7 C 17,2 C 44 % 1019,0 hPa 0,0 l/m 2 min 0 min 779 W/m 6,4 km/h (2 Bft) 93,62 %
14.05.2020 16:20 17,7 C 21,7 C 17,2 C 42 % 1019,0 hPa 0,0 l/m 2 min 0 min 776 W/m 19,3 km/h (3 Bft) 95,74 %
14.05.2020 16:22 17,8 C 21,7 C 17,2 C 43 % 1019,0 hPa 0,0 l/m 2 min 0 min 771 W/m 6,4 km/h (2 Bft) 95,74 %
14.05.2020 16:24 17,8 C 21,7 C 17,2 C 41 % 1019,0 hPa 0,0 l/m 2 min 0 min 767 W/m 12,9 km/h (3 Bft) 95,74 %
14.05.2020 16:26 17,8 C 21,1 C 17,2 C 41 % 1019,0 hPa 0,0 l/m 2 min 0 min 762 W/m 9,7 km/h (2 Bft) 95,65 %
14.05.2020 16:28 17,8 C 21,1 C 17,2 C 42 % 1018,9 hPa 0,0 l/m 2 min 0 min 758 W/m 6,4 km/h (2 Bft) 97,87 %
14.05.2020 16:30 17,8 C 20,6 C 16,7 C 42 % 1019,0 hPa 0,0 l/m 2 min 0 min 755 W/m 12,9 km/h (3 Bft) 95,74 %
14.05.2020 16:32 17,8 C 20,0 C 16,7 C 41 % 1018,9 hPa 0,0 l/m 2 min 0 min 746 W/m 12,9 km/h (3 Bft) 95,74 %
14.05.2020 16:34 17,8 C 20,6 C 16,7 C 42 % 1018,9 hPa 0,0 l/m 2 min 0 min 740 W/m 6,4 km/h (2 Bft) 97,87 %
14.05.2020 16:36 17,7 C 20,6 C 16,7 C 41 % 1018,9 hPa 0,0 l/m 2 min 0 min 733 W/m 9,7 km/h (2 Bft) 97,83 %
14.05.2020 16:38 17,7 C 21,1 C 16,7 C 44 % 1018,9 hPa 0,0 l/m 2 min 0 min 730 W/m 6,4 km/h (2 Bft) 96,61 %
14.05.2020 16:40 17,7 C 21,1 C 16,7 C 44 % 1018,9 hPa 0,0 l/m 2 min 0 min 729 W/m 9,7 km/h (2 Bft) 100,00 %
14.05.2020 16:42 17,8 C 21,1 C 16,7 C 43 % 1018,8 hPa 0,0 l/m 2 min 0 min 723 W/m 6,4 km/h (2 Bft) 95,74 %
14.05.2020 16:44 17,8 C 21,7 C 16,7 C 43 % 1018,9 hPa 0,0 l/m 2 min 0 min 717 W/m 6,4 km/h (2 Bft) 95,74 %
14.05.2020 16:46 17,7 C 21,7 C 16,7 C 42 % 1018,8 hPa 0,0 l/m 2 min 0 min 718 W/m 6,4 km/h (2 Bft) 100,00 %
14.05.2020 16:48 17,8 C 22,2 C 16,7 C 43 % 1018,8 hPa 0,0 l/m 2 min 0 min 713 W/m 6,4 km/h (2 Bft) 100,00 %
14.05.2020 16:50 17,8 C 22,2 C 16,7 C 43 % 1018,8 hPa 0,0 l/m 2 min 0 min 707 W/m 9,7 km/h (2 Bft) 97,87 %
14.05.2020 16:52 17,9 C 21,7 C 16,7 C 42 % 1018,8 hPa 0,0 l/m 2 min 0 min 703 W/m 12,9 km/h (3 Bft) 95,74 %
14.05.2020 16:54 17,9 C 21,1 C 16,7 C 43 % 1018,8 hPa 0,0 l/m 2 min 0 min 699 W/m 12,9 km/h (3 Bft) 97,87 %
14.05.2020 16:56 18,0 C 21,7 C 16,7 C 42 % 1018,8 hPa 0,0 l/m 2 min 0 min 694 W/m 6,4 km/h (2 Bft) 95,74 %
14.05.2020 16:58 18,1 C 21,7 C 16,7 C 42 % 1018,8 hPa 0,0 l/m 2 min 0 min 690 W/m 3,2 km/h (1 Bft) 95,74 %
14.05.2020 17:00 18,1 C 21,1 C 16,1 C 41 % 1018,7 hPa 0,0 l/m 2 min 0 min 681 W/m 12,9 km/h (3 Bft) 97,83 %
14.05.2020 17:02 18,1 C 21,1 C 16,7 C 41 % 1018,7 hPa 0,0 l/m 2 min 0 min 678 W/m 9,7 km/h (2 Bft) 97,87 %
14.05.2020 17:04 18,1 C 21,7 C 16,7 C 43 % 1018,7 hPa 0,0 l/m 2 min 0 min 672 W/m 3,2 km/h (1 Bft) 97,87 %
14.05.2020 17:06 18,2 C 21,7 C 16,7 C 43 % 1018,7 hPa 0,0 l/m 2 min 0 min 666 W/m 3,2 km/h (1 Bft) 97,87 %
14.05.2020 17:08 18,2 C 21,7 C 16,7 C 43 % 1018,7 hPa 0,0 l/m 2 min 0 min 659 W/m 16,1 km/h (3 Bft) 98,28 %
14.05.2020 17:10 18,3 C 21,7 C 17,2 C 41 % 1018,7 hPa 0,0 l/m 2 min 0 min 655 W/m 9,7 km/h (2 Bft) 97,22 %
14.05.2020 17:12 18,3 C 20,6 C 17,8 C 42 % 1018,7 hPa 0,0 l/m 2 min 0 min 651 W/m 12,9 km/h (3 Bft) 93,48 %
14.05.2020 17:14 18,3 C 20,6 C 17,2 C 42 % 1018,6 hPa 0,0 l/m 2 min 0 min 645 W/m 6,4 km/h (2 Bft) 97,87 %
14.05.2020 17:16 18,2 C 20,6 C 16,7 C 42 % 1018,6 hPa 0,0 l/m 2 min 0 min 636 W/m 9,7 km/h (2 Bft) 97,87 %
14.05.2020 17:18 18,2 C 20,0 C 16,7 C 40 % 1018,6 hPa 0,0 l/m 2 min 0 min 628 W/m 25,7 km/h (4 Bft) 97,87 %
14.05.2020 17:20 18,2 C 20,6 C 16,7 C 41 % 1018,6 hPa 0,0 l/m 2 min 0 min 622 W/m 6,4 km/h (2 Bft) 97,87 %
14.05.2020 17:22 18,1 C 20,0 C 16,1 C 41 % 1018,6 hPa 0,0 l/m 2 min 0 min 617 W/m 6,4 km/h (2 Bft) 97,87 %
14.05.2020 17:24 18,1 C 20,0 C 16,1 C 40 % 1018,6 hPa 0,0 l/m 2 min 0 min 612 W/m 16,1 km/h (3 Bft) 97,83 %
14.05.2020 17:26 18,0 C 19,4 C 16,1 C 40 % 1018,6 hPa 0,0 l/m 2 min 0 min 606 W/m 6,4 km/h (2 Bft) 97,87 %
14.05.2020 17:28 17,9 C 20,0 C 15,6 C 40 % 1018,5 hPa 0,0 l/m 2 min 0 min 602 W/m 9,7 km/h (2 Bft) 95,74 %
14.05.2020 17:30 17,9 C 20,0 C 16,1 C 42 % 1018,6 hPa 0,0 l/m 2 min 0 min 597 W/m 6,4 km/h (2 Bft) 97,87 %
14.05.2020 17:32 17,9 C 20,6 C 16,1 C 41 % 1018,6 hPa 0,0 l/m 2 min 0 min 587 W/m 6,4 km/h (2 Bft) 97,87 %
14.05.2020 17:34 17,9 C 20,6 C 16,1 C 40 % 1018,6 hPa 0,0 l/m 2 min 0 min 583 W/m 12,9 km/h (3 Bft) 97,87 %
14.05.2020 17:36 17,9 C 20,6 C 15,6 C 42 % 1018,7 hPa 0,0 l/m 2 min 0 min 583 W/m 6,4 km/h (2 Bft) 97,83 %
14.05.2020 17:38 17,9 C 20,6 C 15,6 C 42 % 1018,6 hPa 0,0 l/m 2 min 0 min 576 W/m 6,4 km/h (2 Bft) 100,00 %
14.05.2020 17:40 17,9 C 20,0 C 15,6 C 40 % 1018,6 hPa 0,0 l/m 2 min 0 min 568 W/m 9,7 km/h (2 Bft) 97,87 %
14.05.2020 17:42 17,9 C 19,4 C 15,6 C 40 % 1018,6 hPa 0,0 l/m 2 min 0 min 562 W/m 16,1 km/h (3 Bft) 100,00 %
14.05.2020 17:44 17,9 C 19,4 C 15,6 C 43 % 1018,6 hPa 0,0 l/m 2 min 0 min 557 W/m 16,1 km/h (3 Bft) 100,00 %
14.05.2020 17:46 17,8 C 19,4 C 15,6 C 41 % 1018,6 hPa 0,0 l/m 2 min 0 min 551 W/m 9,7 km/h (2 Bft) 100,00 %
14.05.2020 17:48 17,8 C 19,4 C 15,6 C 40 % 1018,6 hPa 0,0 l/m 2 min 0 min 546 W/m 12,9 km/h (3 Bft) 97,87 %
14.05.2020 17:50 17,7 C 18,9 C 15,0 C 40 % 1018,5 hPa 0,0 l/m 2 min 0 min 539 W/m 9,7 km/h (2 Bft) 97,87 %
14.05.2020 17:52 17,7 C 18,9 C 15,0 C 40 % 1018,6 hPa 0,0 l/m 2 min 0 min 533 W/m 19,3 km/h (3 Bft) 100,00 %
14.05.2020 17:54 17,6 C 19,4 C 15,0 C 43 % 1018,6 hPa 0,0 l/m 2 min 0 min 525 W/m 6,4 km/h (2 Bft) 97,87 %
14.05.2020 17:56 17,6 C 20,0 C 15,0 C 43 % 1018,6 hPa 0,0 l/m 2 min 0 min 518 W/m 6,4 km/h (2 Bft) 100,00 %
14.05.2020 17:58 17,6 C 20,0 C 15,0 C 43 % 1018,6 hPa 0,0 l/m 2 min 0 min 511 W/m 6,4 km/h (2 Bft) 100,00 %
14.05.2020 18:00 17,6 C 19,4 C 15,0 C 42 % 1018,6 hPa 0,0 l/m 2 min 0 min 510 W/m 6,4 km/h (2 Bft) 100,00 %
14.05.2020 18:02 17,6 C 19,4 C 15,0 C 43 % 1018,6 hPa 0,0 l/m 2 min 0 min 503 W/m 12,9 km/h (3 Bft) 100,00 %
14.05.2020 18:04 17,6 C 19,4 C 15,0 C 42 % 1018,6 hPa 0,0 l/m 2 min 0 min 498 W/m 3,2 km/h (1 Bft) 97,87 %
14.05.2020 18:08 17,5 C 19,4 C 14,4 C 42 % 1018,6 hPa 0,0 l/m 4 min 0 min 488 W/m 9,7 km/h (2 Bft) 100,00 %
14.05.2020 18:10 17,5 C 18,9 C 14,4 C 40 % 1018,5 hPa 0,0 l/m 2 min 0 min 479 W/m 9,7 km/h (2 Bft) 100,00 %
14.05.2020 18:12 17,4 C 18,9 C 14,4 C 40 % 1018,6 hPa 0,0 l/m 2 min 0 min 472 W/m 6,4 km/h (2 Bft) 100,00 %
14.05.2020 18:14 17,4 C 18,3 C 14,4 C 41 % 1018,6 hPa 0,0 l/m 2 min 0 min 465 W/m 6,4 km/h (2 Bft) 100,00 %
14.05.2020 18:16 17,4 C 18,9 C 14,4 C 42 % 1018,6 hPa 0,0 l/m 2 min 0 min 458 W/m 9,7 km/h (2 Bft) 100,00 %
14.05.2020 18:18 17,4 C 18,3 C 14,4 C 41 % 1018,5 hPa 0,0 l/m 2 min 0 min 452 W/m 12,9 km/h (3 Bft) 97,87 %
14.05.2020 18:20 17,3 C 17,8 C 13,9 C 40 % 1018,5 hPa 0,0 l/m 2 min 0 min 444 W/m 9,7 km/h (2 Bft) 95,74 %
14.05.2020 18:22 17,3 C 17,8 C 13,9 C 41 % 1018,5 hPa 0,0 l/m 2 min 0 min 438 W/m 3,2 km/h (1 Bft) 97,83 %
14.05.2020 18:24 17,2 C 17,8 C 13,9 C 40 % 1018,5 hPa 0,0 l/m 2 min 0 min 432 W/m 6,4 km/h (2 Bft) 97,87 %
14.05.2020 18:26 17,2 C 17,8 C 13,9 C 41 % 1018,5 hPa 0,0 l/m 2 min 0 min 426 W/m 9,7 km/h (2 Bft) 97,87 %
14.05.2020 18:28 17,2 C 17,8 C 13,9 C 42 % 1018,4 hPa 0,0 l/m 2 min 0 min 418 W/m 6,4 km/h (2 Bft) 95,74 %
14.05.2020 18:30 17,2 C 17,8 C 13,9 C 41 % 1018,5 hPa 0,0 l/m 2 min 0 min 413 W/m 12,9 km/h (3 Bft) 97,87 %
14.05.2020 18:32 17,1 C 17,2 C 13,9 C 40 % 1018,5 hPa 0,0 l/m 2 min 0 min 407 W/m 12,9 km/h (3 Bft) 97,87 %
14.05.2020 18:34 17,1 C 17,2 C 13,9 C 40 % 1018,4 hPa 0,0 l/m 2 min 0 min 401 W/m 6,4 km/h (2 Bft) 97,83 %
14.05.2020 18:36 17,0 C 17,2 C 13,9 C 41 % 1018,4 hPa 0,0 l/m 2 min 0 min 394 W/m 12,9 km/h (3 Bft) 96,61 %
14.05.2020 18:38 16,9 C 16,7 C 13,3 C 41 % 1018,4 hPa 0,0 l/m 2 min 0 min 388 W/m 6,4 km/h (2 Bft) 97,87 %
14.05.2020 18:40 16,9 C 16,7 C 13,3 C 40 % 1018,4 hPa 0,0 l/m 2 min 0 min 380 W/m 3,2 km/h (1 Bft) 97,14 %
14.05.2020 18:42 16,8 C 16,1 C 13,3 C 40 % 1018,4 hPa 0,0 l/m 2 min 0 min 373 W/m 12,9 km/h (3 Bft) 97,87 %
14.05.2020 18:44 16,7 C 16,1 C 13,3 C 40 % 1018,4 hPa 0,0 l/m 2 min 0 min 365 W/m 12,9 km/h (3 Bft) 95,74 %
14.05.2020 18:46 16,7 C 16,1 C 13,3 C 41 % 1018,4 hPa 0,0 l/m 2 min 0 min 359 W/m 3,2 km/h (1 Bft) 97,83 %
14.05.2020 18:48 16,6 C 16,1 C 13,3 C 42 % 1018,4 hPa 0,0 l/m 2 min 0 min 354 W/m 6,4 km/h (2 Bft) 95,74 %
14.05.2020 18:50 16,6 C 16,1 C 12,8 C 41 % 1018,4 hPa 0,0 l/m 2 min 0 min 344 W/m 3,2 km/h (1 Bft) 98,31 %
14.05.2020 18:52 16,5 C 16,1 C 12,8 C 42 % 1018,3 hPa 0,0 l/m 2 min 0 min 340 W/m 3,2 km/h (1 Bft) 97,87 %
14.05.2020 18:54 16,4 C 16,1 C 12,8 C 42 % 1018,3 hPa 0,0 l/m 2 min 0 min 335 W/m 3,2 km/h (1 Bft) 97,83 %
14.05.2020 18:56 16,4 C 16,1 C 12,8 C 42 % 1018,3 hPa 0,0 l/m 2 min 0 min 329 W/m 9,7 km/h (2 Bft) 95,74 %
14.05.2020 18:58 16,4 C 16,1 C 12,8 C 41 % 1018,4 hPa 0,0 l/m 2 min 0 min 320 W/m 6,4 km/h (2 Bft) 89,36 %
14.05.2020 19:00 16,3 C 15,6 C 12,8 C 41 % 1018,4 hPa 0,0 l/m 2 min 0 min 315 W/m 6,4 km/h (2 Bft) 95,74 %
14.05.2020 19:02 16,3 C 15,6 C 12,8 C 41 % 1018,4 hPa 0,0 l/m 2 min 0 min 311 W/m 6,4 km/h (2 Bft) 97,87 %
14.05.2020 19:04 16,2 C 15,0 C 12,8 C 41 % 1018,4 hPa 0,0 l/m 2 min 0 min 301 W/m 9,7 km/h (2 Bft) 97,67 %
14.05.2020 19:06 16,1 C 15,0 C 12,8 C 42 % 1018,4 hPa 0,0 l/m 2 min 0 min 294 W/m 0,0 km/h (0 Bft) 97,83 %
14.05.2020 19:08 16,1 C 15,0 C 12,8 C 41 % 1018,4 hPa 0,0 l/m 2 min 0 min 289 W/m 6,4 km/h (2 Bft) 97,87 %
14.05.2020 19:10 15,9 C 14,4 C 12,2 C 42 % 1018,4 hPa 0,0 l/m 2 min 0 min 283 W/m 3,2 km/h (1 Bft) 97,87 %
14.05.2020 19:12 15,8 C 14,4 C 12,2 C 41 % 1018,4 hPa 0,0 l/m 2 min 0 min 274 W/m 6,4 km/h (2 Bft) 100,00 %
14.05.2020 19:14 15,7 C 13,9 C 12,2 C 42 % 1018,4 hPa 0,0 l/m 2 min 0 min 267 W/m 12,9 km/h (3 Bft) 97,87 %
14.05.2020 19:16 15,6 C 13,9 C 12,2 C 42 % 1018,4 hPa 0,0 l/m 2 min 0 min 249 W/m 12,9 km/h (3 Bft) 97,87 %
14.05.2020 19:18 15,4 C 13,3 C 12,2 C 41 % 1018,4 hPa 0,0 l/m 2 min 0 min 222 W/m 9,7 km/h (2 Bft) 97,83 %
14.05.2020 19:20 15,3 C 13,3 C 12,2 C 41 % 1018,4 hPa 0,0 l/m 0 min 0 min 64 W/m 6,4 km/h (2 Bft) 97,87 %
14.05.2020 19:22 15,3 C 13,3 C 12,2 C 41 % 1018,4 hPa 0,0 l/m 0 min 0 min 58 W/m 6,4 km/h (2 Bft) 93,62 %
14.05.2020 19:24 15,1 C 12,8 C 12,2 C 42 % 1018,4 hPa 0,0 l/m 0 min 0 min 57 W/m 3,2 km/h (1 Bft) 95,74 %
14.05.2020 19:26 15,1 C 12,8 C 12,2 C 42 % 1018,3 hPa 0,0 l/m 0 min 0 min 58 W/m 9,7 km/h (2 Bft) 93,62 %
14.05.2020 19:28 14,9 C 12,8 C 12,2 C 44 % 1018,4 hPa 0,0 l/m 0 min 0 min 57 W/m 12,9 km/h (3 Bft) 95,74 %
14.05.2020 19:30 14,8 C 12,8 C 12,2 C 44 % 1018,4 hPa 0,0 l/m 0 min 0 min 56 W/m 9,7 km/h (2 Bft) 93,48 %
14.05.2020 19:32 14,7 C 12,8 C 12,2 C 43 % 1018,4 hPa 0,0 l/m 0 min 0 min 55 W/m 9,7 km/h (2 Bft) 95,74 %
14.05.2020 19:34 14,6 C 12,8 C 12,2 C 44 % 1018,4 hPa 0,0 l/m 0 min 0 min 53 W/m 6,4 km/h (2 Bft) 95,74 %
14.05.2020 19:36 14,4 C 12,8 C 11,7 C 43 % 1018,4 hPa 0,0 l/m 0 min 0 min 53 W/m 9,7 km/h (2 Bft) 95,74 %
14.05.2020 19:38 14,3 C 12,8 C 11,7 C 44 % 1018,4 hPa 0,0 l/m 0 min 0 min 51 W/m 3,2 km/h (1 Bft) 95,74 %
14.05.2020 19:40 14,3 C 12,8 C 11,7 C 43 % 1018,5 hPa 0,0 l/m 0 min 0 min 49 W/m 6,4 km/h (2 Bft) 95,74 %
14.05.2020 19:42 14,3 C 12,8 C 11,7 C 44 % 1018,5 hPa 0,0 l/m 0 min 0 min 49 W/m 3,2 km/h (1 Bft) 93,48 %
14.05.2020 19:44 14,3 C 12,8 C 11,7 C 45 % 1018,5 hPa 0,0 l/m 0 min 0 min 48 W/m 9,7 km/h (2 Bft) 95,74 %
14.05.2020 19:46 14,1 C 12,2 C 11,7 C 45 % 1018,6 hPa 0,0 l/m 0 min 0 min 47 W/m 6,4 km/h (2 Bft) 95,74 %
14.05.2020 19:48 14,0 C 12,2 C 11,7 C 46 % 1018,6 hPa 0,0 l/m 0 min 0 min 47 W/m 3,2 km/h (1 Bft) 95,74 %
14.05.2020 19:50 13,9 C 12,2 C 11,7 C 46 % 1018,6 hPa 0,0 l/m 0 min 0 min 46 W/m 3,2 km/h (1 Bft) 95,74 %
14.05.2020 19:52 13,8 C 12,2 C 11,7 C 46 % 1018,6 hPa 0,0 l/m 0 min 0 min 45 W/m 0,0 km/h (0 Bft) 95,74 %
14.05.2020 19:54 13,8 C 12,2 C 11,7 C 46 % 1018,6 hPa 0,0 l/m 0 min 0 min 44 W/m 3,2 km/h (1 Bft) 97,83 %
14.05.2020 19:56 13,8 C 12,2 C 11,7 C 47 % 1018,6 hPa 0,0 l/m 0 min 0 min 44 W/m 0,0 km/h (0 Bft) 97,87 %
14.05.2020 19:58 13,7 C 12,2 C 11,1 C 47 % 1018,6 hPa 0,0 l/m 0 min 0 min 42 W/m 3,2 km/h (1 Bft) 97,87 %
14.05.2020 20:00 13,6 C 12,2 C 11,1 C 47 % 1018,6 hPa 0,0 l/m 0 min 0 min 42 W/m 9,7 km/h (2 Bft) 97,87 %
14.05.2020 20:02 13,6 C 12,2 C 11,1 C 47 % 1018,6 hPa 0,0 l/m 0 min 0 min 41 W/m 3,2 km/h (1 Bft) 95,74 %
14.05.2020 20:04 13,5 C 12,2 C 11,1 C 46 % 1018,7 hPa 0,0 l/m 0 min 0 min 40 W/m 6,4 km/h (2 Bft) 97,83 %
14.05.2020 20:06 13,4 C 12,2 C 11,1 C 46 % 1018,7 hPa 0,0 l/m 0 min 0 min 40 W/m 6,4 km/h (2 Bft) 95,74 %
14.05.2020 20:08 13,4 C 12,2 C 11,1 C 47 % 1018,7 hPa 0,0 l/m 0 min 0 min 39 W/m 3,2 km/h (1 Bft) 97,87 %
14.05.2020 20:10 13,4 C 11,7 C 11,1 C 47 % 1018,7 hPa 0,0 l/m 0 min 0 min 37 W/m 3,2 km/h (1 Bft) 97,87 %
14.05.2020 20:12 13,3 C 11,7 C 11,1 C 48 % 1018,7 hPa 0,0 l/m 0 min 0 min 36 W/m 6,4 km/h (2 Bft) 97,87 %
14.05.2020 20:14 13,3 C 11,7 C 11,1 C 48 % 1018,7 hPa 0,0 l/m 0 min 0 min 35 W/m 3,2 km/h (1 Bft) 100,00 %
14.05.2020 20:16 13,2 C 11,7 C 11,1 C 49 % 1018,8 hPa 0,0 l/m 0 min 0 min 33 W/m 0,0 km/h (0 Bft) 97,83 %
14.05.2020 20:18 13,2 C 11,7 C 11,1 C 49 % 1018,7 hPa 0,0 l/m 0 min 0 min 32 W/m 3,2 km/h (1 Bft) 100,00 %
14.05.2020 20:20 13,1 C 11,7 C 11,1 C 50 % 1018,7 hPa 0,0 l/m 0 min 0 min 31 W/m 6,4 km/h (2 Bft) 100,00 %
14.05.2020 20:22 13,1 C 11,1 C 11,1 C 50 % 1018,8 hPa 0,0 l/m 0 min 0 min 30 W/m 0,0 km/h (0 Bft) 100,00 %
14.05.2020 20:24 13,0 C 11,1 C 10,6 C 50 % 1018,8 hPa 0,0 l/m 0 min 0 min 29 W/m 3,2 km/h (1 Bft) 97,87 %
14.05.2020 20:26 12,9 C 11,1 C 10,6 C 50 % 1018,8 hPa 0,0 l/m 0 min 0 min 28 W/m 3,2 km/h (1 Bft) 100,00 %
14.05.2020 20:28 12,9 C 11,1 C 10,6 C 51 % 1018,8 hPa 0,0 l/m 0 min 0 min 26 W/m 0,0 km/h (0 Bft) 100,00 %
14.05.2020 20:30 12,9 C 11,1 C 10,6 C 50 % 1018,8 hPa 0,0 l/m 0 min 0 min 26 W/m 3,2 km/h (1 Bft) 100,00 %
14.05.2020 20:32 12,8 C 11,1 C 10,6 C 50 % 1018,8 hPa 0,0 l/m 0 min 0 min 25 W/m 3,2 km/h (1 Bft) 97,87 %
14.05.2020 20:34 12,8 C 11,1 C 10,6 C 50 % 1018,8 hPa 0,0 l/m 0 min 0 min 23 W/m 3,2 km/h (1 Bft) 97,87 %
14.05.2020 20:36 12,7 C 11,1 C 10,6 C 51 % 1018,8 hPa 0,0 l/m 0 min 0 min 23 W/m 0,0 km/h (0 Bft) 97,87 %
14.05.2020 20:38 12,7 C 11,1 C 10,6 C 51 % 1018,8 hPa 0,0 l/m 0 min 0 min 21 W/m 6,4 km/h (2 Bft) 100,00 %
14.05.2020 20:40 12,6 C 10,6 C 10,6 C 51 % 1018,8 hPa 0,0 l/m 0 min 0 min 20 W/m 0,0 km/h (0 Bft) 100,00 %
14.05.2020 20:42 12,6 C 10,6 C 10,0 C 52 % 1018,9 hPa 0,0 l/m 0 min 0 min 19 W/m 9,7 km/h (2 Bft) 100,00 %
14.05.2020 20:44 12,5 C 10,6 C 10,0 C 51 % 1018,9 hPa 0,0 l/m 0 min 0 min 18 W/m 3,2 km/h (1 Bft) 100,00 %
14.05.2020 20:46 12,4 C 10,6 C 10,0 C 51 % 1019,0 hPa 0,0 l/m 0 min 0 min 18 W/m 3,2 km/h (1 Bft) 100,00 %
14.05.2020 20:48 12,3 C 10,6 C 10,0 C 52 % 1019,0 hPa 0,0 l/m 0 min 0 min 17 W/m 9,7 km/h (2 Bft) 100,00 %
14.05.2020 20:50 12,3 C 10,6 C 10,6 C 52 % 1019,0 hPa 0,0 l/m 0 min 0 min 16 W/m 6,4 km/h (2 Bft) 100,00 %
14.05.2020 20:52 12,2 C 10,6 C 10,0 C 52 % 1019,0 hPa 0,0 l/m 0 min 0 min 15 W/m 6,4 km/h (2 Bft) 100,00 %
14.05.2020 20:54 12,2 C 10,6 C 10,0 C 52 % 1019,1 hPa 0,0 l/m 0 min 0 min 14 W/m 6,4 km/h (2 Bft) 100,00 %
14.05.2020 20:56 12,1 C 10,6 C 10,0 C 52 % 1019,1 hPa 0,0 l/m 0 min 0 min 12 W/m 3,2 km/h (1 Bft) 100,00 %
14.05.2020 20:58 12,1 C 10,6 C 10,0 C 52 % 1019,1 hPa 0,0 l/m 0 min 0 min 12 W/m 6,4 km/h (2 Bft) 100,00 %
14.05.2020 21:00 12,0 C 10,6 C 10,0 C 52 % 1019,1 hPa 0,0 l/m 0 min 0 min 11 W/m 0,0 km/h (0 Bft) 100,00 %
14.05.2020 21:02 11,9 C 10,0 C 10,0 C 53 % 1019,1 hPa 0,0 l/m 0 min 0 min 11 W/m 0,0 km/h (0 Bft) 100,00 %
14.05.2020 21:04 11,9 C 10,0 C 10,0 C 53 % 1019,1 hPa 0,0 l/m 0 min 0 min 9 W/m 6,4 km/h (2 Bft) 100,00 %
14.05.2020 21:06 11,9 C 10,0 C 10,0 C 53 % 1019,1 hPa 0,0 l/m 0 min 0 min 9 W/m 6,4 km/h (2 Bft) 100,00 %
14.05.2020 21:08 11,8 C 10,0 C 9,4 C 53 % 1019,1 hPa 0,0 l/m 0 min 0 min 7 W/m 3,2 km/h (1 Bft) 97,87 %
14.05.2020 21:10 11,8 C 10,0 C 9,4 C 53 % 1019,1 hPa 0,0 l/m 0 min 0 min 7 W/m 3,2 km/h (1 Bft) 100,00 %
14.05.2020 21:12 11,7 C 10,0 C 9,4 C 54 % 1019,2 hPa 0,0 l/m 0 min 0 min 6 W/m 3,2 km/h (1 Bft) 100,00 %
14.05.2020 21:14 11,7 C 10,0 C 9,4 C 54 % 1019,2 hPa 0,0 l/m 0 min 0 min 5 W/m 3,2 km/h (1 Bft) 100,00 %
14.05.2020 21:16 11,6 C 10,0 C 9,4 C 54 % 1019,2 hPa 0,0 l/m 0 min 0 min 5 W/m 3,2 km/h (1 Bft) 97,87 %
14.05.2020 21:18 11,6 C 10,0 C 9,4 C 54 % 1019,2 hPa 0,0 l/m 0 min 0 min 4 W/m 6,4 km/h (2 Bft) 95,74 %
14.05.2020 21:20 11,6 C 9,4 C 9,4 C 54 % 1019,2 hPa 0,0 l/m 0 min 0 min 0 W/m 3,2 km/h (1 Bft) 95,74 %
14.05.2020 21:22 11,5 C 9,4 C 9,4 C 54 % 1019,2 hPa 0,0 l/m 0 min 0 min 0 W/m 3,2 km/h (1 Bft) 93,62 %
14.05.2020 21:24 11,4 C 9,4 C 9,4 C 54 % 1019,3 hPa 0,0 l/m 0 min 0 min 0 W/m 3,2 km/h (1 Bft) 95,74 %
14.05.2020 21:26 11,4 C 9,4 C 9,4 C 54 % 1019,3 hPa 0,0 l/m 0 min 0 min 0 W/m 3,2 km/h (1 Bft) 95,65 %
14.05.2020 21:28 11,3 C 9,4 C 9,4 C 54 % 1019,3 hPa 0,0 l/m 0 min 0 min 0 W/m 0,0 km/h (0 Bft) 95,74 %
14.05.2020 21:30 11,3 C 9,4 C 8,9 C 54 % 1019,4 hPa 0,0 l/m 0 min 0 min 0 W/m 3,2 km/h (1 Bft) 95,74 %
14.05.2020 21:32 11,2 C 9,4 C 8,9 C 54 % 1019,3 hPa 0,0 l/m 0 min 0 min 0 W/m 3,2 km/h (1 Bft) 94,34 %
14.05.2020 21:34 11,2 C 9,4 C 8,9 C 55 % 1019,4 hPa 0,0 l/m 0 min 0 min 0 W/m 3,2 km/h (1 Bft) 95,74 %
14.05.2020 21:36 11,1 C 9,4 C 8,9 C 55 % 1019,4 hPa 0,0 l/m 0 min 0 min 0 W/m 3,2 km/h (1 Bft) 93,62 %
14.05.2020 21:38 11,1 C 9,4 C 8,9 C 55 % 1019,4 hPa 0,0 l/m 0 min 0 min 0 W/m 3,2 km/h (1 Bft) 95,74 %
14.05.2020 21:40 11,0 C 9,4 C 8,9 C 55 % 1019,4 hPa 0,0 l/m 0 min 0 min 0 W/m 0,0 km/h (0 Bft) 95,65 %
14.05.2020 21:42 11,0 C 8,9 C 8,9 C 55 % 1019,4 hPa 0,0 l/m 0 min 0 min 0 W/m 0,0 km/h (0 Bft) 95,74 %
14.05.2020 21:44 10,9 C 8,9 C 8,9 C 55 % 1019,4 hPa 0,0 l/m 0 min 0 min 0 W/m 0,0 km/h (0 Bft) 95,74 %
14.05.2020 21:46 10,9 C 8,9 C 8,3 C 56 % 1019,4 hPa 0,0 l/m 0 min 0 min 0 W/m 3,2 km/h (1 Bft) 93,62 %
14.05.2020 21:48 10,8 C 8,9 C 8,3 C 56 % 1019,4 hPa 0,0 l/m 0 min 0 min 0 W/m 0,0 km/h (0 Bft) 97,87 %
14.05.2020 21:50 10,8 C 8,9 C 8,3 C 56 % 1019,4 hPa 0,0 l/m 0 min 0 min 0 W/m 0,0 km/h (0 Bft) 95,74 %
14.05.2020 21:52 10,8 C 8,9 C 8,3 C 56 % 1019,4 hPa 0,0 l/m 0 min 0 min 0 W/m 0,0 km/h (0 Bft) 97,96 %
14.05.2020 21:54 10,7 C 8,3 C 8,3 C 56 % 1019,4 hPa 0,0 l/m 0 min 0 min 0 W/m 0,0 km/h (0 Bft) 97,87 %
14.05.2020 21:56 10,7 C 8,3 C 8,3 C 56 % 1019,4 hPa 0,0 l/m 0 min 0 min 0 W/m 0,0 km/h (0 Bft) 97,87 %
14.05.2020 21:58 10,6 C 8,3 C 7,8 C 56 % 1019,4 hPa 0,0 l/m 0 min 0 min 0 W/m 0,0 km/h (0 Bft) 97,14 %
14.05.2020 22:00 10,6 C 8,3 C 7,8 C 56 % 1019,4 hPa 0,0 l/m 0 min 0 min 0 W/m 0,0 km/h (0 Bft) 97,96 %
14.05.2020 22:02 10,6 C 8,3 C 7,8 C 56 % 1019,5 hPa 0,0 l/m 0 min 0 min 0 W/m 3,2 km/h (1 Bft) 95,74 %
14.05.2020 22:04 10,5 C 8,3 C 7,8 C 56 % 1019,5 hPa 0,0 l/m 0 min 0 min 0 W/m 3,2 km/h (1 Bft) 95,74 %
14.05.2020 22:06 10,4 C 8,3 C 7,8 C 56 % 1019,5 hPa 0,0 l/m 0 min 0 min 0 W/m 0,0 km/h (0 Bft) 97,87 %
14.05.2020 22:08 10,4 C 8,3 C 7,8 C 57 % 1019,5 hPa 0,0 l/m 0 min 0 min 0 W/m 3,2 km/h (1 Bft) 97,87 %
14.05.2020 22:10 10,3 C 8,3 C 7,8 C 57 % 1019,5 hPa 0,0 l/m 0 min 0 min 0 W/m 0,0 km/h (0 Bft) 95,74 %
14.05.2020 22:12 10,3 C 8,3 C 7,8 C 57 % 1019,5 hPa 0,0 l/m 0 min 0 min 0 W/m 3,2 km/h (1 Bft) 97,87 %
14.05.2020 22:14 10,2 C 8,3 C 7,8 C 57 % 1019,5 hPa 0,0 l/m 0 min 0 min 0 W/m 3,2 km/h (1 Bft) 97,83 %
14.05.2020 22:16 10,2 C 8,3 C 7,8 C 58 % 1019,5 hPa 0,0 l/m 0 min 0 min 0 W/m 3,2 km/h (1 Bft) 97,87 %
14.05.2020 22:18 10,1 C 8,3 C 8,3 C 58 % 1019,5 hPa 0,0 l/m 0 min 0 min 0 W/m 6,4 km/h (2 Bft) 97,87 %
14.05.2020 22:20 10,1 C 8,3 C 8,3 C 58 % 1019,5 hPa 0,0 l/m 0 min 0 min 0 W/m 3,2 km/h (1 Bft) 97,87 %
14.05.2020 22:22 10,0 C 8,3 C 8,3 C 58 % 1019,5 hPa 0,0 l/m 0 min 0 min 0 W/m 6,4 km/h (2 Bft) 95,74 %
14.05.2020 22:24 9,9 C 8,3 C 8,3 C 59 % 1019,5 hPa 0,0 l/m 0 min 0 min 0 W/m 3,2 km/h (1 Bft) 100,00 %
14.05.2020 22:26 9,9 C 8,3 C 8,3 C 59 % 1019,5 hPa 0,0 l/m 0 min 0 min 0 W/m 3,2 km/h (1 Bft) 100,00 %
14.05.2020 22:28 9,8 C 8,3 C 8,3 C 59 % 1019,5 hPa 0,0 l/m 0 min 0 min 0 W/m 6,4 km/h (2 Bft) 100,00 %
14.05.2020 22:30 9,8 C 8,3 C 8,3 C 59 % 1019,5 hPa 0,0 l/m 0 min 0 min 0 W/m 3,2 km/h (1 Bft) 97,87 %
14.05.2020 22:32 9,8 C 8,3 C 8,3 C 59 % 1019,5 hPa 0,0 l/m 0 min 0 min 0 W/m 3,2 km/h (1 Bft) 100,00 %
14.05.2020 22:34 9,7 C 8,3 C 8,3 C 60 % 1019,5 hPa 0,0 l/m 0 min 0 min 0 W/m 3,2 km/h (1 Bft) 100,00 %
14.05.2020 22:36 9,7 C 8,3 C 8,3 C 60 % 1019,6 hPa 0,0 l/m 0 min 0 min 0 W/m 6,4 km/h (2 Bft) 55,56 %
14.05.2020 22:38 9,7 C 8,3 C 8,3 C 60 % 1019,6 hPa 0,0 l/m 0 min 0 min 0 W/m 3,2 km/h (1 Bft) 100,00 %
14.05.2020 22:40 9,6 C 8,3 C 8,3 C 61 % 1019,6 hPa 0,0 l/m 0 min 0 min 0 W/m 3,2 km/h (1 Bft) 97,87 %
14.05.2020 22:42 9,6 C 8,3 C 8,3 C 60 % 1019,6 hPa 0,0 l/m 0 min 0 min 0 W/m 3,2 km/h (1 Bft) 100,00 %
14.05.2020 22:44 9,6 C 8,3 C 8,3 C 60 % 1019,7 hPa 0,0 l/m 0 min 0 min 0 W/m 6,4 km/h (2 Bft) 100,00 %
14.05.2020 22:46 9,6 C 8,3 C 7,8 C 60 % 1019,7 hPa 0,0 l/m 0 min 0 min 0 W/m 6,4 km/h (2 Bft) 100,00 %
14.05.2020 22:48 9,5 C 8,3 C 7,8 C 61 % 1019,7 hPa 0,0 l/m 0 min 0 min 0 W/m 3,2 km/h (1 Bft) 97,83 %
14.05.2020 22:50 9,5 C 8,3 C 7,8 C 61 % 1019,7 hPa 0,0 l/m 0 min 0 min 0 W/m 3,2 km/h (1 Bft) 100,00 %
14.05.2020 22:52 9,4 C 8,3 C 7,8 C 61 % 1019,7 hPa 0,0 l/m 0 min 0 min 0 W/m 3,2 km/h (1 Bft) 100,00 %
14.05.2020 22:54 9,4 C 8,3 C 7,8 C 61 % 1019,7 hPa 0,0 l/m 0 min 0 min 0 W/m 3,2 km/h (1 Bft) 100,00 %
14.05.2020 22:56 9,4 C 8,3 C 7,8 C 61 % 1019,7 hPa 0,0 l/m 0 min 0 min 0 W/m 3,2 km/h (1 Bft) 97,87 %
14.05.2020 22:58 9,4 C 7,8 C 7,8 C 61 % 1019,7 hPa 0,0 l/m 0 min 0 min 0 W/m 3,2 km/h (1 Bft) 97,87 %
14.05.2020 23:00 9,3 C 7,8 C 7,8 C 61 % 1019,7 hPa 0,0 l/m 0 min 0 min 0 W/m 3,2 km/h (1 Bft) 100,00 %
14.05.2020 23:02 9,3 C 7,8 C 7,8 C 61 % 1019,7 hPa 0,0 l/m 0 min 0 min 0 W/m 9,7 km/h (2 Bft) 100,00 %
14.05.2020 23:04 9,3 C 7,8 C 7,8 C 61 % 1019,7 hPa 0,0 l/m 0 min 0 min 0 W/m 3,2 km/h (1 Bft) 97,87 %
14.05.2020 23:06 9,3 C 7,8 C 7,8 C 61 % 1019,7 hPa 0,0 l/m 0 min 0 min 0 W/m 6,4 km/h (2 Bft) 97,87 %
14.05.2020 23:08 9,2 C 7,8 C 7,8 C 61 % 1019,7 hPa 0,0 l/m 0 min 0 min 0 W/m 3,2 km/h (1 Bft) 95,74 %
14.05.2020 23:10 9,2 C 7,8 C 7,8 C 61 % 1019,8 hPa 0,0 l/m 0 min 0 min 0 W/m 6,4 km/h (2 Bft) 97,83 %
14.05.2020 23:12 9,2 C 7,8 C 7,8 C 61 % 1019,8 hPa 0,0 l/m 0 min 0 min 0 W/m 6,4 km/h (2 Bft) 95,74 %
14.05.2020 23:14 9,2 C 7,8 C 7,8 C 61 % 1019,8 hPa 0,0 l/m 0 min 0 min 0 W/m 3,2 km/h (1 Bft) 97,87 %
14.05.2020 23:16 9,2 C 7,8 C 7,8 C 62 % 1019,8 hPa 0,0 l/m 0 min 0 min 0 W/m 3,2 km/h (1 Bft) 97,87 %
14.05.2020 23:18 9,1 C 7,8 C 7,8 C 62 % 1019,8 hPa 0,0 l/m 0 min 0 min 0 W/m 6,4 km/h (2 Bft) 97,87 %
14.05.2020 23:20 9,1 C 7,8 C 7,8 C 62 % 1019,8 hPa 0,0 l/m 0 min 0 min 0 W/m 3,2 km/h (1 Bft) 97,87 %
14.05.2020 23:22 9,1 C 7,8 C 7,8 C 62 % 1019,8 hPa 0,0 l/m 0 min 0 min 0 W/m 3,2 km/h (1 Bft) 97,83 %
14.05.2020 23:24 9,1 C 7,8 C 7,8 C 62 % 1019,8 hPa 0,0 l/m 0 min 0 min 0 W/m 0,0 km/h (0 Bft) 97,87 %
14.05.2020 23:26 9,1 C 7,8 C 7,2 C 62 % 1019,8 hPa 0,0 l/m 0 min 0 min 0 W/m 3,2 km/h (1 Bft) 93,48 %
14.05.2020 23:28 9,0 C 7,8 C 7,2 C 63 % 1019,9 hPa 0,0 l/m 0 min 0 min 0 W/m 3,2 km/h (1 Bft) 95,74 %
14.05.2020 23:30 9,0 C 7,2 C 7,2 C 62 % 1019,9 hPa 0,0 l/m 0 min 0 min 0 W/m 3,2 km/h (1 Bft) 95,74 %
14.05.2020 23:32 8,9 C 7,8 C 7,8 C 62 % 1019,9 hPa 0,0 l/m 0 min 0 min 0 W/m 6,4 km/h (2 Bft) 95,74 %
14.05.2020 23:34 8,9 C 7,8 C 7,8 C 63 % 1019,9 hPa 0,0 l/m 0 min 0 min 0 W/m 6,4 km/h (2 Bft) 95,65 %
14.05.2020 23:36 8,9 C 7,8 C 7,8 C 63 % 1019,9 hPa 0,0 l/m 0 min 0 min 0 W/m 6,4 km/h (2 Bft) 95,74 %
14.05.2020 23:38 8,9 C 7,8 C 7,8 C 63 % 1019,9 hPa 0,0 l/m 0 min 0 min 0 W/m 9,7 km/h (2 Bft) 95,74 %
14.05.2020 23:40 8,8 C 7,8 C 7,8 C 63 % 1019,9 hPa 0,0 l/m 0 min 0 min 0 W/m 6,4 km/h (2 Bft) 97,87 %
14.05.2020 23:42 8,8 C 7,8 C 7,2 C 63 % 1019,8 hPa 0,0 l/m 0 min 0 min 0 W/m 3,2 km/h (1 Bft) 97,87 %
14.05.2020 23:44 8,8 C 7,2 C 7,2 C 63 % 1019,9 hPa 0,0 l/m 0 min 0 min 0 W/m 3,2 km/h (1 Bft) 93,62 %
14.05.2020 23:46 8,8 C 7,2 C 7,2 C 63 % 1019,9 hPa 0,0 l/m 0 min 0 min 0 W/m 6,4 km/h (2 Bft) 97,83 %
14.05.2020 23:48 8,8 C 7,2 C 7,2 C 63 % 1019,8 hPa 0,0 l/m 0 min 0 min 0 W/m 3,2 km/h (1 Bft) 89,36 %
14.05.2020 23:50 8,7 C 7,2 C 7,2 C 63 % 1019,8 hPa 0,0 l/m 0 min 0 min 0 W/m 0,0 km/h (0 Bft) 97,87 %
14.05.2020 23:52 8,7 C 7,2 C 7,2 C 63 % 1019,8 hPa 0,0 l/m 0 min 0 min 0 W/m 3,2 km/h (1 Bft) 97,87 %
14.05.2020 23:54 8,7 C 7,2 C 7,2 C 63 % 1019,8 hPa 0,0 l/m 0 min 0 min 0 W/m 3,2 km/h (1 Bft) 97,87 %
14.05.2020 23:56 8,7 C 7,2 C 7,2 C 64 % 1019,9 hPa 0,0 l/m 0 min 0 min 0 W/m 3,2 km/h (1 Bft) 97,83 %
14.05.2020 23:58 8,7 C 7,2 C 7,2 C 64 % 1019,9 hPa 0,0 l/m 0 min 0 min 0 W/m 0,0 km/h (0 Bft) 97,87 %
_ Min-Zeit 06:18 05:14 05:58 17:18 00:00 - - - - 00:00 07:44
Minimum _ 2,3 C 1,1 C 0,6 C 40 % 1015,8 hPa - - - - 0,0 km/h (0 Bft) 47,62 %
_ Max-Zeit 17:10 14:00 13:38 07:34 11:36 00:00 18:08 00:00 13:40 08:50 00:40
Maximum _ 18,3 C 23,9 C 27,8 C 90 % 1020,9 hPa 0,0 l/m 4 min 0 min 1164 W/m 29,0 km/h
O-SO (5 Bft)
100,00 %
Durchschnitt _ 10,6 C 11,7 C 10,9 C 62 % 1019,1 hPa #0,0 l/m #9:14 h #0 min. 473 W/m 5,3 km/h (1 Bft) 97,37 %
© 2020 W. Hausmann